<?xml version="1.0" encoding="UTF-8" standalone="no" ?>
<gpx xmlns="http://www.topografix.com/GPX/1/1" xmlns:xsi="http://www.w3.org/2001/XMLSchema-instance" xsi:schemaLocation="http://www.topografix.com/GPX/1/1 http://www.topografix.com/GPX/1/1/gpx.xsd" version="1.1" creator="VisuGPX - https://www.visugpx.com">
  <metadata>
    <name>Rando - Vers Pey Gros</name>
    <desc><![CDATA[Petite balade bien sympa avec vue sur la plaine de Cuges.]]></desc>
  </metadata>
  <trk>
    <name><![CDATA[18-OCT-20 10:14:39]]></name>
    <trkseg>
      <trkpt lat="43.26911" lon="5.67151">
        <ele>227.01</ele>
        <time>2020-10-18T06:31:57Z</time>
      </trkpt>
      <trkpt lat="43.26906" lon="5.67154">
        <ele>227.01</ele>
        <time>2020-10-18T06:31:58Z</time>
      </trkpt>
      <trkpt lat="43.26908" lon="5.67158">
        <ele>232.3</ele>
        <time>2020-10-18T06:32:05Z</time>
      </trkpt>
      <trkpt lat="43.26909" lon="5.67158">
        <ele>233.74</ele>
        <time>2020-10-18T06:32:06Z</time>
      </trkpt>
      <trkpt lat="43.26912" lon="5.67159">
        <ele>240.47</ele>
        <time>2020-10-18T06:32:09Z</time>
      </trkpt>
      <trkpt lat="43.26913" lon="5.67159">
        <ele>244.31</ele>
        <time>2020-10-18T06:32:11Z</time>
      </trkpt>
      <trkpt lat="43.26917" lon="5.67161">
        <ele>249.6</ele>
        <time>2020-10-18T06:32:14Z</time>
      </trkpt>
      <trkpt lat="43.26918" lon="5.67161">
        <ele>252.48</ele>
        <time>2020-10-18T06:32:16Z</time>
      </trkpt>
      <trkpt lat="43.2692" lon="5.67161">
        <ele>255.85</ele>
        <time>2020-10-18T06:32:18Z</time>
      </trkpt>
      <trkpt lat="43.26921" lon="5.67161">
        <ele>257.29</ele>
        <time>2020-10-18T06:32:19Z</time>
      </trkpt>
      <trkpt lat="43.26924" lon="5.67161">
        <ele>263.06</ele>
        <time>2020-10-18T06:32:23Z</time>
      </trkpt>
      <trkpt lat="43.26925" lon="5.67162">
        <ele>264.5</ele>
        <time>2020-10-18T06:32:24Z</time>
      </trkpt>
      <trkpt lat="43.2693" lon="5.67163">
        <ele>269.31</ele>
        <time>2020-10-18T06:32:28Z</time>
      </trkpt>
      <trkpt lat="43.26931" lon="5.67162">
        <ele>269.79</ele>
        <time>2020-10-18T06:32:29Z</time>
      </trkpt>
      <trkpt lat="43.26934" lon="5.67163">
        <ele>273.15</ele>
        <time>2020-10-18T06:32:32Z</time>
      </trkpt>
      <trkpt lat="43.2694" lon="5.67165">
        <ele>278.44</ele>
        <time>2020-10-18T06:32:38Z</time>
      </trkpt>
      <trkpt lat="43.26945" lon="5.67167">
        <ele>281.8</ele>
        <time>2020-10-18T06:32:43Z</time>
      </trkpt>
      <trkpt lat="43.26953" lon="5.67171">
        <ele>286.13</ele>
        <time>2020-10-18T06:32:50Z</time>
      </trkpt>
      <trkpt lat="43.26956" lon="5.67172">
        <ele>287.57</ele>
        <time>2020-10-18T06:32:53Z</time>
      </trkpt>
      <trkpt lat="43.26961" lon="5.67173">
        <ele>289.49</ele>
        <time>2020-10-18T06:32:57Z</time>
      </trkpt>
      <trkpt lat="43.26962" lon="5.67174">
        <ele>289.97</ele>
        <time>2020-10-18T06:32:58Z</time>
      </trkpt>
      <trkpt lat="43.26966" lon="5.67176">
        <ele>290.94</ele>
        <time>2020-10-18T06:33:01Z</time>
      </trkpt>
      <trkpt lat="43.26978" lon="5.67179">
        <ele>294.78</ele>
        <time>2020-10-18T06:33:12Z</time>
      </trkpt>
      <trkpt lat="43.26979" lon="5.6718">
        <ele>294.78</ele>
        <time>2020-10-18T06:33:13Z</time>
      </trkpt>
      <trkpt lat="43.26982" lon="5.67184">
        <ele>295.74</ele>
        <time>2020-10-18T06:33:16Z</time>
      </trkpt>
      <trkpt lat="43.2699" lon="5.6719">
        <ele>297.67</ele>
        <time>2020-10-18T06:33:22Z</time>
      </trkpt>
      <trkpt lat="43.26992" lon="5.67194">
        <ele>298.63</ele>
        <time>2020-10-18T06:33:25Z</time>
      </trkpt>
      <trkpt lat="43.27" lon="5.67198">
        <ele>300.07</ele>
        <time>2020-10-18T06:33:31Z</time>
      </trkpt>
      <trkpt lat="43.27005" lon="5.67202">
        <ele>301.51</ele>
        <time>2020-10-18T06:33:37Z</time>
      </trkpt>
      <trkpt lat="43.27012" lon="5.67208">
        <ele>302.95</ele>
        <time>2020-10-18T06:33:43Z</time>
      </trkpt>
      <trkpt lat="43.2702" lon="5.67218">
        <ele>305.36</ele>
        <time>2020-10-18T06:33:54Z</time>
      </trkpt>
      <trkpt lat="43.27026" lon="5.67229">
        <ele>306.8</ele>
        <time>2020-10-18T06:34:01Z</time>
      </trkpt>
      <trkpt lat="43.27028" lon="5.67243">
        <ele>307.76</ele>
        <time>2020-10-18T06:34:09Z</time>
      </trkpt>
      <trkpt lat="43.27032" lon="5.67252">
        <ele>309.2</ele>
        <time>2020-10-18T06:34:16Z</time>
      </trkpt>
      <trkpt lat="43.27032" lon="5.67255">
        <ele>309.2</ele>
        <time>2020-10-18T06:34:18Z</time>
      </trkpt>
      <trkpt lat="43.27033" lon="5.67261">
        <ele>309.68</ele>
        <time>2020-10-18T06:34:22Z</time>
      </trkpt>
      <trkpt lat="43.27036" lon="5.67278">
        <ele>311.12</ele>
        <time>2020-10-18T06:34:34Z</time>
      </trkpt>
      <trkpt lat="43.2704" lon="5.67294">
        <ele>312.09</ele>
        <time>2020-10-18T06:34:44Z</time>
      </trkpt>
      <trkpt lat="43.27042" lon="5.67296">
        <ele>312.57</ele>
        <time>2020-10-18T06:34:46Z</time>
      </trkpt>
      <trkpt lat="43.27047" lon="5.67303">
        <ele>313.05</ele>
        <time>2020-10-18T06:34:52Z</time>
      </trkpt>
      <trkpt lat="43.27054" lon="5.67314">
        <ele>314.01</ele>
        <time>2020-10-18T06:35:00Z</time>
      </trkpt>
      <trkpt lat="43.27055" lon="5.67317">
        <ele>314.97</ele>
        <time>2020-10-18T06:35:02Z</time>
      </trkpt>
      <trkpt lat="43.27059" lon="5.67324">
        <ele>314.97</ele>
        <time>2020-10-18T06:35:07Z</time>
      </trkpt>
      <trkpt lat="43.27067" lon="5.67335">
        <ele>316.41</ele>
        <time>2020-10-18T06:35:15Z</time>
      </trkpt>
      <trkpt lat="43.2708" lon="5.67346">
        <ele>318.33</ele>
        <time>2020-10-18T06:35:27Z</time>
      </trkpt>
      <trkpt lat="43.27089" lon="5.67349">
        <ele>319.3</ele>
        <time>2020-10-18T06:35:35Z</time>
      </trkpt>
      <trkpt lat="43.27095" lon="5.67346">
        <ele>319.78</ele>
        <time>2020-10-18T06:35:40Z</time>
      </trkpt>
      <trkpt lat="43.271" lon="5.67337">
        <ele>319.78</ele>
        <time>2020-10-18T06:35:47Z</time>
      </trkpt>
      <trkpt lat="43.27103" lon="5.67332">
        <ele>320.26</ele>
        <time>2020-10-18T06:36:00Z</time>
      </trkpt>
      <trkpt lat="43.27103" lon="5.67332">
        <ele>320.26</ele>
        <time>2020-10-18T06:36:02Z</time>
      </trkpt>
      <trkpt lat="43.27104" lon="5.67328">
        <ele>320.74</ele>
        <time>2020-10-18T06:36:05Z</time>
      </trkpt>
      <trkpt lat="43.27107" lon="5.67321">
        <ele>321.22</ele>
        <time>2020-10-18T06:36:13Z</time>
      </trkpt>
      <trkpt lat="43.27108" lon="5.67318">
        <ele>321.22</ele>
        <time>2020-10-18T06:36:16Z</time>
      </trkpt>
      <trkpt lat="43.27114" lon="5.67307">
        <ele>322.66</ele>
        <time>2020-10-18T06:36:26Z</time>
      </trkpt>
      <trkpt lat="43.27116" lon="5.67302">
        <ele>323.14</ele>
        <time>2020-10-18T06:36:30Z</time>
      </trkpt>
      <trkpt lat="43.27117" lon="5.67295">
        <ele>324.1</ele>
        <time>2020-10-18T06:36:35Z</time>
      </trkpt>
      <trkpt lat="43.27119" lon="5.6729">
        <ele>324.58</ele>
        <time>2020-10-18T06:36:40Z</time>
      </trkpt>
      <trkpt lat="43.27123" lon="5.67279">
        <ele>326.02</ele>
        <time>2020-10-18T06:36:49Z</time>
      </trkpt>
      <trkpt lat="43.27126" lon="5.67272">
        <ele>326.5</ele>
        <time>2020-10-18T06:36:54Z</time>
      </trkpt>
      <trkpt lat="43.27133" lon="5.6726">
        <ele>327.95</ele>
        <time>2020-10-18T06:37:05Z</time>
      </trkpt>
      <trkpt lat="43.27134" lon="5.67257">
        <ele>327.95</ele>
        <time>2020-10-18T06:37:07Z</time>
      </trkpt>
      <trkpt lat="43.2714" lon="5.67248">
        <ele>329.39</ele>
        <time>2020-10-18T06:37:15Z</time>
      </trkpt>
      <trkpt lat="43.27143" lon="5.67239">
        <ele>330.35</ele>
        <time>2020-10-18T06:37:22Z</time>
      </trkpt>
      <trkpt lat="43.27148" lon="5.67228">
        <ele>331.31</ele>
        <time>2020-10-18T06:37:30Z</time>
      </trkpt>
      <trkpt lat="43.27153" lon="5.67218">
        <ele>332.27</ele>
        <time>2020-10-18T06:37:37Z</time>
      </trkpt>
      <trkpt lat="43.27161" lon="5.67204">
        <ele>333.23</ele>
        <time>2020-10-18T06:37:49Z</time>
      </trkpt>
      <trkpt lat="43.27162" lon="5.67203">
        <ele>333.71</ele>
        <time>2020-10-18T06:37:51Z</time>
      </trkpt>
      <trkpt lat="43.27164" lon="5.672">
        <ele>334.2</ele>
        <time>2020-10-18T06:37:53Z</time>
      </trkpt>
      <trkpt lat="43.27169" lon="5.67191">
        <ele>334.68</ele>
        <time>2020-10-18T06:38:00Z</time>
      </trkpt>
      <trkpt lat="43.27174" lon="5.67185">
        <ele>335.64</ele>
        <time>2020-10-18T06:38:06Z</time>
      </trkpt>
      <trkpt lat="43.27177" lon="5.67181">
        <ele>335.64</ele>
        <time>2020-10-18T06:38:09Z</time>
      </trkpt>
      <trkpt lat="43.27184" lon="5.67174">
        <ele>336.12</ele>
        <time>2020-10-18T06:38:16Z</time>
      </trkpt>
      <trkpt lat="43.27186" lon="5.67172">
        <ele>337.08</ele>
        <time>2020-10-18T06:38:18Z</time>
      </trkpt>
      <trkpt lat="43.27188" lon="5.67167">
        <ele>337.08</ele>
        <time>2020-10-18T06:38:22Z</time>
      </trkpt>
      <trkpt lat="43.27194" lon="5.67161">
        <ele>337.56</ele>
        <time>2020-10-18T06:38:28Z</time>
      </trkpt>
      <trkpt lat="43.27204" lon="5.6715">
        <ele>337.56</ele>
        <time>2020-10-18T06:38:39Z</time>
      </trkpt>
      <trkpt lat="43.27204" lon="5.6715">
        <ele>337.56</ele>
        <time>2020-10-18T06:38:49Z</time>
      </trkpt>
      <trkpt lat="43.27208" lon="5.67146">
        <ele>337.56</ele>
        <time>2020-10-18T06:39:05Z</time>
      </trkpt>
      <trkpt lat="43.27208" lon="5.67141">
        <ele>337.08</ele>
        <time>2020-10-18T06:39:09Z</time>
      </trkpt>
      <trkpt lat="43.27207" lon="5.6714">
        <ele>337.56</ele>
        <time>2020-10-18T06:39:18Z</time>
      </trkpt>
      <trkpt lat="43.27218" lon="5.67128">
        <ele>337.56</ele>
        <time>2020-10-18T06:39:27Z</time>
      </trkpt>
      <trkpt lat="43.27226" lon="5.67117">
        <ele>337.56</ele>
        <time>2020-10-18T06:39:38Z</time>
      </trkpt>
      <trkpt lat="43.2723" lon="5.67114">
        <ele>337.56</ele>
        <time>2020-10-18T06:39:41Z</time>
      </trkpt>
      <trkpt lat="43.27239" lon="5.67104">
        <ele>338.04</ele>
        <time>2020-10-18T06:39:50Z</time>
      </trkpt>
      <trkpt lat="43.27252" lon="5.67092">
        <ele>339.48</ele>
        <time>2020-10-18T06:40:02Z</time>
      </trkpt>
      <trkpt lat="43.27259" lon="5.67087">
        <ele>339.96</ele>
        <time>2020-10-18T06:40:09Z</time>
      </trkpt>
      <trkpt lat="43.27263" lon="5.67086">
        <ele>339.96</ele>
        <time>2020-10-18T06:40:12Z</time>
      </trkpt>
      <trkpt lat="43.27272" lon="5.67083">
        <ele>340.92</ele>
        <time>2020-10-18T06:40:21Z</time>
      </trkpt>
      <trkpt lat="43.27274" lon="5.67082">
        <ele>340.92</ele>
        <time>2020-10-18T06:40:23Z</time>
      </trkpt>
      <trkpt lat="43.27285" lon="5.67082">
        <ele>341.41</ele>
        <time>2020-10-18T06:40:31Z</time>
      </trkpt>
      <trkpt lat="43.27295" lon="5.6709">
        <ele>341.89</ele>
        <time>2020-10-18T06:40:39Z</time>
      </trkpt>
      <trkpt lat="43.27297" lon="5.67095">
        <ele>341.89</ele>
        <time>2020-10-18T06:40:43Z</time>
      </trkpt>
      <trkpt lat="43.273" lon="5.671">
        <ele>341.89</ele>
        <time>2020-10-18T06:40:47Z</time>
      </trkpt>
      <trkpt lat="43.27304" lon="5.67109">
        <ele>342.85</ele>
        <time>2020-10-18T06:40:53Z</time>
      </trkpt>
      <trkpt lat="43.27306" lon="5.67113">
        <ele>342.85</ele>
        <time>2020-10-18T06:40:56Z</time>
      </trkpt>
      <trkpt lat="43.27309" lon="5.67119">
        <ele>342.85</ele>
        <time>2020-10-18T06:40:59Z</time>
      </trkpt>
      <trkpt lat="43.27311" lon="5.67126">
        <ele>343.33</ele>
        <time>2020-10-18T06:41:04Z</time>
      </trkpt>
      <trkpt lat="43.27316" lon="5.67141">
        <ele>343.81</ele>
        <time>2020-10-18T06:41:14Z</time>
      </trkpt>
      <trkpt lat="43.27319" lon="5.67158">
        <ele>344.29</ele>
        <time>2020-10-18T06:41:24Z</time>
      </trkpt>
      <trkpt lat="43.27325" lon="5.67174">
        <ele>345.25</ele>
        <time>2020-10-18T06:41:33Z</time>
      </trkpt>
      <trkpt lat="43.27331" lon="5.67195">
        <ele>346.69</ele>
        <time>2020-10-18T06:41:46Z</time>
      </trkpt>
      <trkpt lat="43.27332" lon="5.67199">
        <ele>346.21</ele>
        <time>2020-10-18T06:41:48Z</time>
      </trkpt>
      <trkpt lat="43.27338" lon="5.67218">
        <ele>348.13</ele>
        <time>2020-10-18T06:41:59Z</time>
      </trkpt>
      <trkpt lat="43.27341" lon="5.67225">
        <ele>348.13</ele>
        <time>2020-10-18T06:42:05Z</time>
      </trkpt>
      <trkpt lat="43.27343" lon="5.6723">
        <ele>348.13</ele>
        <time>2020-10-18T06:42:08Z</time>
      </trkpt>
      <trkpt lat="43.27348" lon="5.67242">
        <ele>348.62</ele>
        <time>2020-10-18T06:42:16Z</time>
      </trkpt>
      <trkpt lat="43.27348" lon="5.67249">
        <ele>348.13</ele>
        <time>2020-10-18T06:42:31Z</time>
      </trkpt>
      <trkpt lat="43.27349" lon="5.67248">
        <ele>348.13</ele>
        <time>2020-10-18T06:42:47Z</time>
      </trkpt>
      <trkpt lat="43.27357" lon="5.67242">
        <ele>349.1</ele>
        <time>2020-10-18T06:42:57Z</time>
      </trkpt>
      <trkpt lat="43.27366" lon="5.67236">
        <ele>350.06</ele>
        <time>2020-10-18T06:43:07Z</time>
      </trkpt>
      <trkpt lat="43.27368" lon="5.67236">
        <ele>350.54</ele>
        <time>2020-10-18T06:43:09Z</time>
      </trkpt>
      <trkpt lat="43.27378" lon="5.67228">
        <ele>351.5</ele>
        <time>2020-10-18T06:43:19Z</time>
      </trkpt>
      <trkpt lat="43.27381" lon="5.67225">
        <ele>351.5</ele>
        <time>2020-10-18T06:43:23Z</time>
      </trkpt>
      <trkpt lat="43.27385" lon="5.67223">
        <ele>351.5</ele>
        <time>2020-10-18T06:43:39Z</time>
      </trkpt>
      <trkpt lat="43.27385" lon="5.67223">
        <ele>351.5</ele>
        <time>2020-10-18T06:44:14Z</time>
      </trkpt>
      <trkpt lat="43.27385" lon="5.67222">
        <ele>351.98</ele>
        <time>2020-10-18T06:44:17Z</time>
      </trkpt>
      <trkpt lat="43.27387" lon="5.67217">
        <ele>352.46</ele>
        <time>2020-10-18T06:44:21Z</time>
      </trkpt>
      <trkpt lat="43.2739" lon="5.67214">
        <ele>352.46</ele>
        <time>2020-10-18T06:44:24Z</time>
      </trkpt>
      <trkpt lat="43.27397" lon="5.67203">
        <ele>353.42</ele>
        <time>2020-10-18T06:44:35Z</time>
      </trkpt>
      <trkpt lat="43.27402" lon="5.67198">
        <ele>354.38</ele>
        <time>2020-10-18T06:44:41Z</time>
      </trkpt>
      <trkpt lat="43.27404" lon="5.67195">
        <ele>354.38</ele>
        <time>2020-10-18T06:44:55Z</time>
      </trkpt>
      <trkpt lat="43.27404" lon="5.67195">
        <ele>354.38</ele>
        <time>2020-10-18T06:45:05Z</time>
      </trkpt>
      <trkpt lat="43.27409" lon="5.67185">
        <ele>354.86</ele>
        <time>2020-10-18T06:45:13Z</time>
      </trkpt>
      <trkpt lat="43.27421" lon="5.67169">
        <ele>356.31</ele>
        <time>2020-10-18T06:45:27Z</time>
      </trkpt>
      <trkpt lat="43.27424" lon="5.67164">
        <ele>356.79</ele>
        <time>2020-10-18T06:45:31Z</time>
      </trkpt>
      <trkpt lat="43.27436" lon="5.67152">
        <ele>357.75</ele>
        <time>2020-10-18T06:45:43Z</time>
      </trkpt>
      <trkpt lat="43.27445" lon="5.67142">
        <ele>359.19</ele>
        <time>2020-10-18T06:45:54Z</time>
      </trkpt>
      <trkpt lat="43.27456" lon="5.67132">
        <ele>360.15</ele>
        <time>2020-10-18T06:46:04Z</time>
      </trkpt>
      <trkpt lat="43.2746" lon="5.67127">
        <ele>360.63</ele>
        <time>2020-10-18T06:46:08Z</time>
      </trkpt>
      <trkpt lat="43.27462" lon="5.67125">
        <ele>360.63</ele>
        <time>2020-10-18T06:46:10Z</time>
      </trkpt>
      <trkpt lat="43.27468" lon="5.6712">
        <ele>361.59</ele>
        <time>2020-10-18T06:46:16Z</time>
      </trkpt>
      <trkpt lat="43.27473" lon="5.67118">
        <ele>362.07</ele>
        <time>2020-10-18T06:46:22Z</time>
      </trkpt>
      <trkpt lat="43.27476" lon="5.67115">
        <ele>362.55</ele>
        <time>2020-10-18T06:46:25Z</time>
      </trkpt>
      <trkpt lat="43.27491" lon="5.67106">
        <ele>363.52</ele>
        <time>2020-10-18T06:46:37Z</time>
      </trkpt>
      <trkpt lat="43.27492" lon="5.67105">
        <ele>363.52</ele>
        <time>2020-10-18T06:46:38Z</time>
      </trkpt>
      <trkpt lat="43.27494" lon="5.67104">
        <ele>364</ele>
        <time>2020-10-18T06:46:40Z</time>
      </trkpt>
      <trkpt lat="43.27506" lon="5.67096">
        <ele>364.48</ele>
        <time>2020-10-18T06:46:51Z</time>
      </trkpt>
      <trkpt lat="43.27509" lon="5.67092">
        <ele>364.96</ele>
        <time>2020-10-18T06:46:53Z</time>
      </trkpt>
      <trkpt lat="43.27525" lon="5.67082">
        <ele>366.88</ele>
        <time>2020-10-18T06:47:07Z</time>
      </trkpt>
      <trkpt lat="43.27541" lon="5.67071">
        <ele>368.32</ele>
        <time>2020-10-18T06:47:20Z</time>
      </trkpt>
      <trkpt lat="43.27547" lon="5.67067">
        <ele>368.8</ele>
        <time>2020-10-18T06:47:25Z</time>
      </trkpt>
      <trkpt lat="43.2756" lon="5.6705">
        <ele>369.76</ele>
        <time>2020-10-18T06:47:39Z</time>
      </trkpt>
      <trkpt lat="43.27568" lon="5.67039">
        <ele>370.24</ele>
        <time>2020-10-18T06:47:48Z</time>
      </trkpt>
      <trkpt lat="43.2757" lon="5.67032">
        <ele>370.73</ele>
        <time>2020-10-18T06:47:53Z</time>
      </trkpt>
      <trkpt lat="43.27579" lon="5.67018">
        <ele>370.73</ele>
        <time>2020-10-18T06:48:01Z</time>
      </trkpt>
      <trkpt lat="43.27584" lon="5.67011">
        <ele>370.73</ele>
        <time>2020-10-18T06:48:07Z</time>
      </trkpt>
      <trkpt lat="43.27591" lon="5.66992">
        <ele>371.21</ele>
        <time>2020-10-18T06:48:18Z</time>
      </trkpt>
      <trkpt lat="43.27601" lon="5.66977">
        <ele>371.21</ele>
        <time>2020-10-18T06:48:30Z</time>
      </trkpt>
      <trkpt lat="43.27601" lon="5.66975">
        <ele>371.21</ele>
        <time>2020-10-18T06:48:31Z</time>
      </trkpt>
      <trkpt lat="43.27614" lon="5.66962">
        <ele>371.21</ele>
        <time>2020-10-18T06:48:42Z</time>
      </trkpt>
      <trkpt lat="43.2762" lon="5.6696">
        <ele>371.21</ele>
        <time>2020-10-18T06:48:46Z</time>
      </trkpt>
      <trkpt lat="43.27623" lon="5.66961">
        <ele>371.21</ele>
        <time>2020-10-18T06:48:48Z</time>
      </trkpt>
      <trkpt lat="43.27637" lon="5.6698">
        <ele>371.69</ele>
        <time>2020-10-18T06:49:03Z</time>
      </trkpt>
      <trkpt lat="43.27651" lon="5.67001">
        <ele>372.17</ele>
        <time>2020-10-18T06:49:16Z</time>
      </trkpt>
      <trkpt lat="43.27658" lon="5.67012">
        <ele>371.69</ele>
        <time>2020-10-18T06:49:25Z</time>
      </trkpt>
      <trkpt lat="43.27666" lon="5.67024">
        <ele>371.69</ele>
        <time>2020-10-18T06:49:37Z</time>
      </trkpt>
      <trkpt lat="43.27665" lon="5.67023">
        <ele>371.69</ele>
        <time>2020-10-18T06:49:50Z</time>
      </trkpt>
      <trkpt lat="43.27665" lon="5.67023">
        <ele>371.69</ele>
        <time>2020-10-18T06:50:00Z</time>
      </trkpt>
      <trkpt lat="43.27668" lon="5.67028">
        <ele>372.17</ele>
        <time>2020-10-18T06:50:05Z</time>
      </trkpt>
      <trkpt lat="43.27673" lon="5.67035">
        <ele>372.17</ele>
        <time>2020-10-18T06:50:11Z</time>
      </trkpt>
      <trkpt lat="43.27685" lon="5.67049">
        <ele>372.65</ele>
        <time>2020-10-18T06:50:24Z</time>
      </trkpt>
      <trkpt lat="43.27687" lon="5.67054">
        <ele>372.65</ele>
        <time>2020-10-18T06:50:27Z</time>
      </trkpt>
      <trkpt lat="43.27689" lon="5.67057">
        <ele>372.65</ele>
        <time>2020-10-18T06:50:30Z</time>
      </trkpt>
      <trkpt lat="43.277" lon="5.6707">
        <ele>373.61</ele>
        <time>2020-10-18T06:50:43Z</time>
      </trkpt>
      <trkpt lat="43.27703" lon="5.67073">
        <ele>374.09</ele>
        <time>2020-10-18T06:50:47Z</time>
      </trkpt>
      <trkpt lat="43.27705" lon="5.67075">
        <ele>374.09</ele>
        <time>2020-10-18T06:50:49Z</time>
      </trkpt>
      <trkpt lat="43.27711" lon="5.67078">
        <ele>374.57</ele>
        <time>2020-10-18T06:50:55Z</time>
      </trkpt>
      <trkpt lat="43.27716" lon="5.67081">
        <ele>374.57</ele>
        <time>2020-10-18T06:50:59Z</time>
      </trkpt>
      <trkpt lat="43.27723" lon="5.67085">
        <ele>375.53</ele>
        <time>2020-10-18T06:51:05Z</time>
      </trkpt>
      <trkpt lat="43.27738" lon="5.67085">
        <ele>376.49</ele>
        <time>2020-10-18T06:51:17Z</time>
      </trkpt>
      <trkpt lat="43.27744" lon="5.67084">
        <ele>376.49</ele>
        <time>2020-10-18T06:51:21Z</time>
      </trkpt>
      <trkpt lat="43.2775" lon="5.67082">
        <ele>376.49</ele>
        <time>2020-10-18T06:51:26Z</time>
      </trkpt>
      <trkpt lat="43.27759" lon="5.67077">
        <ele>377.45</ele>
        <time>2020-10-18T06:51:34Z</time>
      </trkpt>
      <trkpt lat="43.27772" lon="5.67065">
        <ele>378.42</ele>
        <time>2020-10-18T06:51:47Z</time>
      </trkpt>
      <trkpt lat="43.2778" lon="5.67056">
        <ele>379.38</ele>
        <time>2020-10-18T06:51:56Z</time>
      </trkpt>
      <trkpt lat="43.27794" lon="5.67043">
        <ele>380.34</ele>
        <time>2020-10-18T06:52:09Z</time>
      </trkpt>
      <trkpt lat="43.27803" lon="5.67026">
        <ele>381.3</ele>
        <time>2020-10-18T06:52:21Z</time>
      </trkpt>
      <trkpt lat="43.27805" lon="5.67021">
        <ele>381.3</ele>
        <time>2020-10-18T06:52:25Z</time>
      </trkpt>
      <trkpt lat="43.27812" lon="5.67005">
        <ele>382.26</ele>
        <time>2020-10-18T06:52:36Z</time>
      </trkpt>
      <trkpt lat="43.27813" lon="5.67005">
        <ele>382.26</ele>
        <time>2020-10-18T06:52:37Z</time>
      </trkpt>
      <trkpt lat="43.27822" lon="5.6699">
        <ele>383.22</ele>
        <time>2020-10-18T06:52:48Z</time>
      </trkpt>
      <trkpt lat="43.27836" lon="5.66982">
        <ele>383.7</ele>
        <time>2020-10-18T06:52:59Z</time>
      </trkpt>
      <trkpt lat="43.27848" lon="5.66976">
        <ele>384.18</ele>
        <time>2020-10-18T06:53:08Z</time>
      </trkpt>
      <trkpt lat="43.27861" lon="5.66962">
        <ele>384.66</ele>
        <time>2020-10-18T06:53:22Z</time>
      </trkpt>
      <trkpt lat="43.27861" lon="5.66962">
        <ele>384.66</ele>
        <time>2020-10-18T06:53:23Z</time>
      </trkpt>
      <trkpt lat="43.27872" lon="5.66973">
        <ele>385.63</ele>
        <time>2020-10-18T06:53:33Z</time>
      </trkpt>
      <trkpt lat="43.27876" lon="5.66984">
        <ele>385.63</ele>
        <time>2020-10-18T06:53:40Z</time>
      </trkpt>
      <trkpt lat="43.27877" lon="5.67">
        <ele>386.11</ele>
        <time>2020-10-18T06:53:49Z</time>
      </trkpt>
      <trkpt lat="43.27877" lon="5.67005">
        <ele>386.11</ele>
        <time>2020-10-18T06:53:52Z</time>
      </trkpt>
      <trkpt lat="43.27876" lon="5.67022">
        <ele>386.59</ele>
        <time>2020-10-18T06:54:01Z</time>
      </trkpt>
      <trkpt lat="43.2788" lon="5.67035">
        <ele>387.55</ele>
        <time>2020-10-18T06:54:10Z</time>
      </trkpt>
      <trkpt lat="43.27882" lon="5.67039">
        <ele>387.55</ele>
        <time>2020-10-18T06:54:12Z</time>
      </trkpt>
      <trkpt lat="43.27884" lon="5.67047">
        <ele>387.55</ele>
        <time>2020-10-18T06:54:16Z</time>
      </trkpt>
      <trkpt lat="43.27888" lon="5.67055">
        <ele>388.03</ele>
        <time>2020-10-18T06:54:22Z</time>
      </trkpt>
      <trkpt lat="43.27893" lon="5.67071">
        <ele>388.99</ele>
        <time>2020-10-18T06:54:33Z</time>
      </trkpt>
      <trkpt lat="43.27895" lon="5.67075">
        <ele>389.47</ele>
        <time>2020-10-18T06:54:36Z</time>
      </trkpt>
      <trkpt lat="43.27899" lon="5.67084">
        <ele>389.95</ele>
        <time>2020-10-18T06:54:42Z</time>
      </trkpt>
      <trkpt lat="43.27904" lon="5.67092">
        <ele>390.43</ele>
        <time>2020-10-18T06:54:48Z</time>
      </trkpt>
      <trkpt lat="43.27907" lon="5.67097">
        <ele>390.91</ele>
        <time>2020-10-18T06:54:52Z</time>
      </trkpt>
      <trkpt lat="43.27919" lon="5.67109">
        <ele>391.87</ele>
        <time>2020-10-18T06:55:04Z</time>
      </trkpt>
      <trkpt lat="43.27933" lon="5.67119">
        <ele>392.36</ele>
        <time>2020-10-18T06:55:16Z</time>
      </trkpt>
      <trkpt lat="43.27949" lon="5.6713">
        <ele>393.32</ele>
        <time>2020-10-18T06:55:29Z</time>
      </trkpt>
      <trkpt lat="43.27952" lon="5.67133">
        <ele>393.32</ele>
        <time>2020-10-18T06:55:31Z</time>
      </trkpt>
      <trkpt lat="43.27954" lon="5.67139">
        <ele>393.8</ele>
        <time>2020-10-18T06:55:35Z</time>
      </trkpt>
      <trkpt lat="43.27956" lon="5.67142">
        <ele>394.28</ele>
        <time>2020-10-18T06:55:38Z</time>
      </trkpt>
      <trkpt lat="43.27966" lon="5.67159">
        <ele>394.76</ele>
        <time>2020-10-18T06:55:51Z</time>
      </trkpt>
      <trkpt lat="43.27976" lon="5.67177">
        <ele>395.24</ele>
        <time>2020-10-18T06:56:03Z</time>
      </trkpt>
      <trkpt lat="43.27984" lon="5.67189">
        <ele>395.72</ele>
        <time>2020-10-18T06:56:12Z</time>
      </trkpt>
      <trkpt lat="43.27988" lon="5.67195">
        <ele>395.72</ele>
        <time>2020-10-18T06:56:16Z</time>
      </trkpt>
      <trkpt lat="43.27993" lon="5.67206">
        <ele>396.2</ele>
        <time>2020-10-18T06:56:23Z</time>
      </trkpt>
      <trkpt lat="43.28002" lon="5.67224">
        <ele>396.2</ele>
        <time>2020-10-18T06:56:35Z</time>
      </trkpt>
      <trkpt lat="43.28019" lon="5.67243">
        <ele>396.2</ele>
        <time>2020-10-18T06:56:49Z</time>
      </trkpt>
      <trkpt lat="43.28024" lon="5.67255">
        <ele>395.24</ele>
        <time>2020-10-18T06:56:59Z</time>
      </trkpt>
      <trkpt lat="43.2803" lon="5.67266">
        <ele>395.24</ele>
        <time>2020-10-18T06:57:06Z</time>
      </trkpt>
      <trkpt lat="43.28035" lon="5.67275">
        <ele>395.24</ele>
        <time>2020-10-18T06:57:11Z</time>
      </trkpt>
      <trkpt lat="43.28042" lon="5.6729">
        <ele>394.76</ele>
        <time>2020-10-18T06:57:19Z</time>
      </trkpt>
      <trkpt lat="43.28044" lon="5.67298">
        <ele>394.76</ele>
        <time>2020-10-18T06:57:27Z</time>
      </trkpt>
      <trkpt lat="43.28048" lon="5.67312">
        <ele>394.28</ele>
        <time>2020-10-18T06:57:34Z</time>
      </trkpt>
      <trkpt lat="43.28051" lon="5.67328">
        <ele>394.28</ele>
        <time>2020-10-18T06:57:42Z</time>
      </trkpt>
      <trkpt lat="43.28051" lon="5.67337">
        <ele>394.28</ele>
        <time>2020-10-18T06:57:49Z</time>
      </trkpt>
      <trkpt lat="43.28051" lon="5.67341">
        <ele>393.8</ele>
        <time>2020-10-18T06:57:51Z</time>
      </trkpt>
      <trkpt lat="43.28049" lon="5.67367">
        <ele>394.28</ele>
        <time>2020-10-18T06:58:03Z</time>
      </trkpt>
      <trkpt lat="43.2805" lon="5.67372">
        <ele>394.28</ele>
        <time>2020-10-18T06:58:07Z</time>
      </trkpt>
      <trkpt lat="43.28053" lon="5.67379">
        <ele>394.76</ele>
        <time>2020-10-18T06:58:11Z</time>
      </trkpt>
      <trkpt lat="43.28063" lon="5.67396">
        <ele>395.24</ele>
        <time>2020-10-18T06:58:23Z</time>
      </trkpt>
      <trkpt lat="43.28065" lon="5.67402">
        <ele>395.24</ele>
        <time>2020-10-18T06:58:26Z</time>
      </trkpt>
      <trkpt lat="43.28074" lon="5.67417">
        <ele>395.72</ele>
        <time>2020-10-18T06:58:37Z</time>
      </trkpt>
      <trkpt lat="43.28078" lon="5.67425">
        <ele>396.2</ele>
        <time>2020-10-18T06:58:42Z</time>
      </trkpt>
      <trkpt lat="43.28084" lon="5.67434">
        <ele>396.2</ele>
        <time>2020-10-18T06:58:50Z</time>
      </trkpt>
      <trkpt lat="43.28089" lon="5.67441">
        <ele>396.2</ele>
        <time>2020-10-18T06:58:55Z</time>
      </trkpt>
      <trkpt lat="43.28099" lon="5.67454">
        <ele>395.72</ele>
        <time>2020-10-18T06:59:04Z</time>
      </trkpt>
      <trkpt lat="43.28098" lon="5.67461">
        <ele>396.68</ele>
        <time>2020-10-18T06:59:09Z</time>
      </trkpt>
      <trkpt lat="43.28093" lon="5.67481">
        <ele>396.68</ele>
        <time>2020-10-18T06:59:19Z</time>
      </trkpt>
      <trkpt lat="43.28093" lon="5.67488">
        <ele>396.2</ele>
        <time>2020-10-18T06:59:25Z</time>
      </trkpt>
      <trkpt lat="43.28095" lon="5.67507">
        <ele>396.2</ele>
        <time>2020-10-18T06:59:34Z</time>
      </trkpt>
      <trkpt lat="43.28098" lon="5.67513">
        <ele>396.2</ele>
        <time>2020-10-18T06:59:37Z</time>
      </trkpt>
      <trkpt lat="43.28104" lon="5.67527">
        <ele>396.2</ele>
        <time>2020-10-18T06:59:47Z</time>
      </trkpt>
      <trkpt lat="43.28108" lon="5.67533">
        <ele>396.2</ele>
        <time>2020-10-18T06:59:51Z</time>
      </trkpt>
      <trkpt lat="43.28109" lon="5.67536">
        <ele>394.28</ele>
        <time>2020-10-18T07:00:05Z</time>
      </trkpt>
      <trkpt lat="43.28109" lon="5.67536">
        <ele>400.53</ele>
        <time>2020-10-18T07:00:06Z</time>
      </trkpt>
      <trkpt lat="43.28109" lon="5.67536">
        <ele>396.68</ele>
        <time>2020-10-18T07:00:07Z</time>
      </trkpt>
      <trkpt lat="43.28109" lon="5.67536">
        <ele>390.91</ele>
        <time>2020-10-18T07:00:09Z</time>
      </trkpt>
      <trkpt lat="43.28109" lon="5.67536">
        <ele>394.28</ele>
        <time>2020-10-18T07:00:10Z</time>
      </trkpt>
      <trkpt lat="43.28109" lon="5.67536">
        <ele>400.05</ele>
        <time>2020-10-18T07:00:11Z</time>
      </trkpt>
      <trkpt lat="43.28109" lon="5.67536">
        <ele>398.12</ele>
        <time>2020-10-18T07:00:12Z</time>
      </trkpt>
      <trkpt lat="43.28109" lon="5.67536">
        <ele>389.95</ele>
        <time>2020-10-18T07:00:15Z</time>
      </trkpt>
      <trkpt lat="43.28109" lon="5.67536">
        <ele>403.89</ele>
        <time>2020-10-18T07:00:16Z</time>
      </trkpt>
      <trkpt lat="43.28109" lon="5.67536">
        <ele>398.12</ele>
        <time>2020-10-18T07:00:17Z</time>
      </trkpt>
      <trkpt lat="43.28109" lon="5.67536">
        <ele>391.87</ele>
        <time>2020-10-18T07:00:18Z</time>
      </trkpt>
      <trkpt lat="43.28109" lon="5.67536">
        <ele>401.01</ele>
        <time>2020-10-18T07:00:19Z</time>
      </trkpt>
      <trkpt lat="43.28109" lon="5.67536">
        <ele>393.8</ele>
        <time>2020-10-18T07:00:20Z</time>
      </trkpt>
      <trkpt lat="43.28109" lon="5.67536">
        <ele>399.57</ele>
        <time>2020-10-18T07:00:21Z</time>
      </trkpt>
      <trkpt lat="43.28109" lon="5.67534">
        <ele>394.28</ele>
        <time>2020-10-18T07:00:25Z</time>
      </trkpt>
      <trkpt lat="43.28109" lon="5.67534">
        <ele>397.64</ele>
        <time>2020-10-18T07:00:27Z</time>
      </trkpt>
      <trkpt lat="43.28109" lon="5.67534">
        <ele>402.93</ele>
        <time>2020-10-18T07:00:28Z</time>
      </trkpt>
      <trkpt lat="43.28109" lon="5.67534">
        <ele>388.03</ele>
        <time>2020-10-18T07:00:29Z</time>
      </trkpt>
      <trkpt lat="43.28109" lon="5.67534">
        <ele>404.37</ele>
        <time>2020-10-18T07:00:30Z</time>
      </trkpt>
      <trkpt lat="43.28109" lon="5.67534">
        <ele>397.16</ele>
        <time>2020-10-18T07:00:31Z</time>
      </trkpt>
      <trkpt lat="43.28109" lon="5.67533">
        <ele>378.9</ele>
        <time>2020-10-18T07:00:37Z</time>
      </trkpt>
      <trkpt lat="43.28109" lon="5.67533">
        <ele>412.54</ele>
        <time>2020-10-18T07:00:38Z</time>
      </trkpt>
      <trkpt lat="43.28109" lon="5.67533">
        <ele>398.12</ele>
        <time>2020-10-18T07:00:39Z</time>
      </trkpt>
      <trkpt lat="43.28109" lon="5.67533">
        <ele>397.16</ele>
        <time>2020-10-18T07:00:41Z</time>
      </trkpt>
      <trkpt lat="43.28109" lon="5.67533">
        <ele>393.32</ele>
        <time>2020-10-18T07:00:43Z</time>
      </trkpt>
      <trkpt lat="43.28109" lon="5.67533">
        <ele>401.49</ele>
        <time>2020-10-18T07:00:44Z</time>
      </trkpt>
      <trkpt lat="43.28109" lon="5.67533">
        <ele>390.91</ele>
        <time>2020-10-18T07:00:45Z</time>
      </trkpt>
      <trkpt lat="43.28109" lon="5.67533">
        <ele>404.37</ele>
        <time>2020-10-18T07:00:46Z</time>
      </trkpt>
      <trkpt lat="43.28109" lon="5.67533">
        <ele>397.64</ele>
        <time>2020-10-18T07:00:47Z</time>
      </trkpt>
      <trkpt lat="43.28109" lon="5.67533">
        <ele>393.8</ele>
        <time>2020-10-18T07:00:49Z</time>
      </trkpt>
      <trkpt lat="43.28109" lon="5.67533">
        <ele>403.89</ele>
        <time>2020-10-18T07:00:50Z</time>
      </trkpt>
      <trkpt lat="43.28109" lon="5.67533">
        <ele>396.2</ele>
        <time>2020-10-18T07:00:51Z</time>
      </trkpt>
      <trkpt lat="43.28109" lon="5.67533">
        <ele>387.07</ele>
        <time>2020-10-18T07:00:52Z</time>
      </trkpt>
      <trkpt lat="43.28109" lon="5.67533">
        <ele>404.85</ele>
        <time>2020-10-18T07:00:53Z</time>
      </trkpt>
      <trkpt lat="43.28109" lon="5.67533">
        <ele>399.08</ele>
        <time>2020-10-18T07:00:54Z</time>
      </trkpt>
      <trkpt lat="43.2811" lon="5.67533">
        <ele>397.16</ele>
        <time>2020-10-18T07:00:56Z</time>
      </trkpt>
      <trkpt lat="43.2811" lon="5.67529">
        <ele>397.64</ele>
        <time>2020-10-18T07:01:02Z</time>
      </trkpt>
      <trkpt lat="43.28115" lon="5.67508">
        <ele>398.6</ele>
        <time>2020-10-18T07:01:17Z</time>
      </trkpt>
      <trkpt lat="43.28115" lon="5.67506">
        <ele>401.49</ele>
        <time>2020-10-18T07:01:18Z</time>
      </trkpt>
      <trkpt lat="43.28119" lon="5.67496">
        <ele>401.97</ele>
        <time>2020-10-18T07:01:30Z</time>
      </trkpt>
      <trkpt lat="43.28121" lon="5.67489">
        <ele>402.45</ele>
        <time>2020-10-18T07:01:35Z</time>
      </trkpt>
      <trkpt lat="43.28124" lon="5.67486">
        <ele>402.93</ele>
        <time>2020-10-18T07:01:40Z</time>
      </trkpt>
      <trkpt lat="43.28127" lon="5.67478">
        <ele>403.89</ele>
        <time>2020-10-18T07:01:52Z</time>
      </trkpt>
      <trkpt lat="43.28127" lon="5.67478">
        <ele>403.89</ele>
        <time>2020-10-18T07:02:11Z</time>
      </trkpt>
      <trkpt lat="43.28127" lon="5.67478">
        <ele>403.89</ele>
        <time>2020-10-18T07:02:34Z</time>
      </trkpt>
      <trkpt lat="43.28132" lon="5.6747">
        <ele>404.85</ele>
        <time>2020-10-18T07:02:46Z</time>
      </trkpt>
      <trkpt lat="43.28135" lon="5.67467">
        <ele>405.81</ele>
        <time>2020-10-18T07:02:59Z</time>
      </trkpt>
      <trkpt lat="43.28135" lon="5.67467">
        <ele>406.29</ele>
        <time>2020-10-18T07:03:19Z</time>
      </trkpt>
      <trkpt lat="43.28139" lon="5.67469">
        <ele>406.77</ele>
        <time>2020-10-18T07:03:33Z</time>
      </trkpt>
      <trkpt lat="43.2814" lon="5.6747">
        <ele>406.77</ele>
        <time>2020-10-18T07:03:35Z</time>
      </trkpt>
      <trkpt lat="43.28144" lon="5.6747">
        <ele>407.74</ele>
        <time>2020-10-18T07:03:50Z</time>
      </trkpt>
      <trkpt lat="43.28147" lon="5.67472">
        <ele>408.7</ele>
        <time>2020-10-18T07:03:54Z</time>
      </trkpt>
      <trkpt lat="43.28152" lon="5.67477">
        <ele>409.66</ele>
        <time>2020-10-18T07:03:59Z</time>
      </trkpt>
      <trkpt lat="43.28159" lon="5.67482">
        <ele>410.62</ele>
        <time>2020-10-18T07:04:07Z</time>
      </trkpt>
      <trkpt lat="43.28164" lon="5.67482">
        <ele>411.58</ele>
        <time>2020-10-18T07:04:13Z</time>
      </trkpt>
      <trkpt lat="43.28167" lon="5.67482">
        <ele>412.54</ele>
        <time>2020-10-18T07:04:17Z</time>
      </trkpt>
      <trkpt lat="43.28175" lon="5.67473">
        <ele>414.95</ele>
        <time>2020-10-18T07:04:29Z</time>
      </trkpt>
      <trkpt lat="43.28184" lon="5.67469">
        <ele>417.35</ele>
        <time>2020-10-18T07:04:40Z</time>
      </trkpt>
      <trkpt lat="43.2819" lon="5.67463">
        <ele>419.75</ele>
        <time>2020-10-18T07:04:49Z</time>
      </trkpt>
      <trkpt lat="43.28198" lon="5.67457">
        <ele>420.71</ele>
        <time>2020-10-18T07:05:00Z</time>
      </trkpt>
      <trkpt lat="43.28207" lon="5.67448">
        <ele>423.6</ele>
        <time>2020-10-18T07:05:11Z</time>
      </trkpt>
      <trkpt lat="43.28214" lon="5.67439">
        <ele>426</ele>
        <time>2020-10-18T07:05:24Z</time>
      </trkpt>
      <trkpt lat="43.28221" lon="5.67433">
        <ele>426.96</ele>
        <time>2020-10-18T07:05:32Z</time>
      </trkpt>
      <trkpt lat="43.28222" lon="5.67431">
        <ele>427.44</ele>
        <time>2020-10-18T07:05:34Z</time>
      </trkpt>
      <trkpt lat="43.28226" lon="5.67426">
        <ele>427.92</ele>
        <time>2020-10-18T07:05:38Z</time>
      </trkpt>
      <trkpt lat="43.28234" lon="5.67418">
        <ele>429.37</ele>
        <time>2020-10-18T07:05:49Z</time>
      </trkpt>
      <trkpt lat="43.28236" lon="5.67416">
        <ele>429.85</ele>
        <time>2020-10-18T07:05:52Z</time>
      </trkpt>
      <trkpt lat="43.28249" lon="5.67404">
        <ele>431.77</ele>
        <time>2020-10-18T07:06:06Z</time>
      </trkpt>
      <trkpt lat="43.28251" lon="5.674">
        <ele>431.77</ele>
        <time>2020-10-18T07:06:13Z</time>
      </trkpt>
      <trkpt lat="43.28255" lon="5.67382">
        <ele>433.69</ele>
        <time>2020-10-18T07:06:27Z</time>
      </trkpt>
      <trkpt lat="43.28258" lon="5.67368">
        <ele>435.61</ele>
        <time>2020-10-18T07:06:38Z</time>
      </trkpt>
      <trkpt lat="43.2826" lon="5.67354">
        <ele>437.54</ele>
        <time>2020-10-18T07:06:50Z</time>
      </trkpt>
      <trkpt lat="43.28265" lon="5.67341">
        <ele>439.46</ele>
        <time>2020-10-18T07:07:02Z</time>
      </trkpt>
      <trkpt lat="43.28266" lon="5.67327">
        <ele>440.42</ele>
        <time>2020-10-18T07:07:14Z</time>
      </trkpt>
      <trkpt lat="43.28273" lon="5.6732">
        <ele>441.38</ele>
        <time>2020-10-18T07:07:21Z</time>
      </trkpt>
      <trkpt lat="43.2828" lon="5.67314">
        <ele>441.86</ele>
        <time>2020-10-18T07:07:27Z</time>
      </trkpt>
      <trkpt lat="43.28283" lon="5.67309">
        <ele>441.86</ele>
        <time>2020-10-18T07:07:32Z</time>
      </trkpt>
      <trkpt lat="43.28286" lon="5.67305">
        <ele>442.34</ele>
        <time>2020-10-18T07:07:36Z</time>
      </trkpt>
      <trkpt lat="43.28295" lon="5.67297">
        <ele>442.82</ele>
        <time>2020-10-18T07:07:45Z</time>
      </trkpt>
      <trkpt lat="43.28307" lon="5.67288">
        <ele>442.82</ele>
        <time>2020-10-18T07:07:57Z</time>
      </trkpt>
      <trkpt lat="43.28307" lon="5.67288">
        <ele>442.82</ele>
        <time>2020-10-18T07:07:59Z</time>
      </trkpt>
      <trkpt lat="43.28312" lon="5.67281">
        <ele>442.82</ele>
        <time>2020-10-18T07:08:03Z</time>
      </trkpt>
      <trkpt lat="43.28316" lon="5.67273">
        <ele>442.82</ele>
        <time>2020-10-18T07:08:10Z</time>
      </trkpt>
      <trkpt lat="43.28313" lon="5.67266">
        <ele>442.82</ele>
        <time>2020-10-18T07:08:18Z</time>
      </trkpt>
      <trkpt lat="43.28308" lon="5.67263">
        <ele>442.82</ele>
        <time>2020-10-18T07:08:21Z</time>
      </trkpt>
      <trkpt lat="43.28299" lon="5.67258">
        <ele>442.34</ele>
        <time>2020-10-18T07:08:26Z</time>
      </trkpt>
      <trkpt lat="43.28283" lon="5.67248">
        <ele>442.34</ele>
        <time>2020-10-18T07:08:40Z</time>
      </trkpt>
      <trkpt lat="43.28277" lon="5.67238">
        <ele>442.34</ele>
        <time>2020-10-18T07:08:49Z</time>
      </trkpt>
      <trkpt lat="43.28275" lon="5.67235">
        <ele>434.17</ele>
        <time>2020-10-18T07:08:59Z</time>
      </trkpt>
      <trkpt lat="43.28275" lon="5.67235">
        <ele>450.52</ele>
        <time>2020-10-18T07:09:00Z</time>
      </trkpt>
      <trkpt lat="43.28275" lon="5.67235">
        <ele>439.94</ele>
        <time>2020-10-18T07:09:01Z</time>
      </trkpt>
      <trkpt lat="43.28275" lon="5.67235">
        <ele>436.1</ele>
        <time>2020-10-18T07:09:02Z</time>
      </trkpt>
      <trkpt lat="43.28275" lon="5.67235">
        <ele>450.52</ele>
        <time>2020-10-18T07:09:03Z</time>
      </trkpt>
      <trkpt lat="43.28275" lon="5.67235">
        <ele>442.34</ele>
        <time>2020-10-18T07:09:04Z</time>
      </trkpt>
      <trkpt lat="43.28275" lon="5.67235">
        <ele>450.52</ele>
        <time>2020-10-18T07:09:07Z</time>
      </trkpt>
      <trkpt lat="43.28275" lon="5.67235">
        <ele>440.9</ele>
        <time>2020-10-18T07:09:08Z</time>
      </trkpt>
      <trkpt lat="43.28275" lon="5.67235">
        <ele>448.59</ele>
        <time>2020-10-18T07:09:10Z</time>
      </trkpt>
      <trkpt lat="43.28275" lon="5.67235">
        <ele>440.42</ele>
        <time>2020-10-18T07:09:11Z</time>
      </trkpt>
      <trkpt lat="43.28275" lon="5.67235">
        <ele>443.31</ele>
        <time>2020-10-18T07:09:12Z</time>
      </trkpt>
      <trkpt lat="43.28275" lon="5.67235">
        <ele>440.42</ele>
        <time>2020-10-18T07:09:16Z</time>
      </trkpt>
      <trkpt lat="43.28275" lon="5.67235">
        <ele>446.67</ele>
        <time>2020-10-18T07:09:17Z</time>
      </trkpt>
      <trkpt lat="43.28275" lon="5.67235">
        <ele>445.71</ele>
        <time>2020-10-18T07:09:18Z</time>
      </trkpt>
      <trkpt lat="43.28275" lon="5.67235">
        <ele>442.82</ele>
        <time>2020-10-18T07:09:19Z</time>
      </trkpt>
      <trkpt lat="43.28275" lon="5.67235">
        <ele>442.82</ele>
        <time>2020-10-18T07:09:20Z</time>
      </trkpt>
      <trkpt lat="43.28275" lon="5.67235">
        <ele>438.02</ele>
        <time>2020-10-18T07:09:21Z</time>
      </trkpt>
      <trkpt lat="43.28275" lon="5.67235">
        <ele>448.11</ele>
        <time>2020-10-18T07:09:22Z</time>
      </trkpt>
      <trkpt lat="43.28275" lon="5.67235">
        <ele>442.82</ele>
        <time>2020-10-18T07:09:23Z</time>
      </trkpt>
      <trkpt lat="43.28275" lon="5.67235">
        <ele>439.46</ele>
        <time>2020-10-18T07:09:24Z</time>
      </trkpt>
      <trkpt lat="43.28275" lon="5.67235">
        <ele>442.82</ele>
        <time>2020-10-18T07:09:25Z</time>
      </trkpt>
      <trkpt lat="43.28268" lon="5.67215">
        <ele>442.34</ele>
        <time>2020-10-18T07:09:37Z</time>
      </trkpt>
      <trkpt lat="43.28261" lon="5.67184">
        <ele>442.82</ele>
        <time>2020-10-18T07:09:55Z</time>
      </trkpt>
      <trkpt lat="43.2826" lon="5.67183">
        <ele>442.82</ele>
        <time>2020-10-18T07:09:56Z</time>
      </trkpt>
      <trkpt lat="43.28259" lon="5.67177">
        <ele>442.82</ele>
        <time>2020-10-18T07:09:59Z</time>
      </trkpt>
      <trkpt lat="43.28254" lon="5.67154">
        <ele>443.79</ele>
        <time>2020-10-18T07:10:12Z</time>
      </trkpt>
      <trkpt lat="43.28252" lon="5.67149">
        <ele>443.79</ele>
        <time>2020-10-18T07:10:15Z</time>
      </trkpt>
      <trkpt lat="43.28249" lon="5.67135">
        <ele>445.23</ele>
        <time>2020-10-18T07:10:23Z</time>
      </trkpt>
      <trkpt lat="43.28249" lon="5.67132">
        <ele>447.15</ele>
        <time>2020-10-18T07:10:25Z</time>
      </trkpt>
      <trkpt lat="43.28248" lon="5.67125">
        <ele>445.23</ele>
        <time>2020-10-18T07:10:29Z</time>
      </trkpt>
      <trkpt lat="43.28241" lon="5.67103">
        <ele>446.67</ele>
        <time>2020-10-18T07:10:43Z</time>
      </trkpt>
      <trkpt lat="43.28236" lon="5.67084">
        <ele>447.63</ele>
        <time>2020-10-18T07:10:55Z</time>
      </trkpt>
      <trkpt lat="43.28235" lon="5.67082">
        <ele>448.11</ele>
        <time>2020-10-18T07:10:57Z</time>
      </trkpt>
      <trkpt lat="43.28234" lon="5.6707">
        <ele>448.59</ele>
        <time>2020-10-18T07:11:04Z</time>
      </trkpt>
      <trkpt lat="43.28233" lon="5.67061">
        <ele>450.03</ele>
        <time>2020-10-18T07:11:11Z</time>
      </trkpt>
      <trkpt lat="43.28231" lon="5.67046">
        <ele>451</ele>
        <time>2020-10-18T07:11:21Z</time>
      </trkpt>
      <trkpt lat="43.28225" lon="5.67027">
        <ele>452.92</ele>
        <time>2020-10-18T07:11:34Z</time>
      </trkpt>
      <trkpt lat="43.28221" lon="5.6702">
        <ele>453.88</ele>
        <time>2020-10-18T07:11:40Z</time>
      </trkpt>
      <trkpt lat="43.28217" lon="5.67014">
        <ele>454.36</ele>
        <time>2020-10-18T07:11:45Z</time>
      </trkpt>
      <trkpt lat="43.28212" lon="5.67008">
        <ele>454.36</ele>
        <time>2020-10-18T07:11:50Z</time>
      </trkpt>
      <trkpt lat="43.282" lon="5.66995">
        <ele>455.8</ele>
        <time>2020-10-18T07:12:03Z</time>
      </trkpt>
      <trkpt lat="43.28195" lon="5.66988">
        <ele>455.8</ele>
        <time>2020-10-18T07:12:08Z</time>
      </trkpt>
      <trkpt lat="43.28189" lon="5.66972">
        <ele>456.76</ele>
        <time>2020-10-18T07:12:20Z</time>
      </trkpt>
      <trkpt lat="43.28176" lon="5.66959">
        <ele>458.69</ele>
        <time>2020-10-18T07:12:33Z</time>
      </trkpt>
      <trkpt lat="43.28175" lon="5.66957">
        <ele>458.69</ele>
        <time>2020-10-18T07:12:37Z</time>
      </trkpt>
      <trkpt lat="43.28176" lon="5.66957">
        <ele>458.69</ele>
        <time>2020-10-18T07:12:53Z</time>
      </trkpt>
      <trkpt lat="43.28175" lon="5.66957">
        <ele>458.69</ele>
        <time>2020-10-18T07:13:15Z</time>
      </trkpt>
      <trkpt lat="43.28175" lon="5.66957">
        <ele>458.69</ele>
        <time>2020-10-18T07:13:16Z</time>
      </trkpt>
      <trkpt lat="43.28165" lon="5.66954">
        <ele>459.65</ele>
        <time>2020-10-18T07:13:25Z</time>
      </trkpt>
      <trkpt lat="43.28155" lon="5.66957">
        <ele>459.65</ele>
        <time>2020-10-18T07:13:33Z</time>
      </trkpt>
      <trkpt lat="43.28153" lon="5.66957">
        <ele>460.13</ele>
        <time>2020-10-18T07:13:37Z</time>
      </trkpt>
      <trkpt lat="43.28155" lon="5.66955">
        <ele>460.13</ele>
        <time>2020-10-18T07:13:39Z</time>
      </trkpt>
      <trkpt lat="43.28157" lon="5.6695">
        <ele>460.13</ele>
        <time>2020-10-18T07:13:43Z</time>
      </trkpt>
      <trkpt lat="43.28153" lon="5.66939">
        <ele>460.13</ele>
        <time>2020-10-18T07:13:54Z</time>
      </trkpt>
      <trkpt lat="43.28154" lon="5.66938">
        <ele>460.13</ele>
        <time>2020-10-18T07:14:01Z</time>
      </trkpt>
      <trkpt lat="43.28156" lon="5.66935">
        <ele>460.61</ele>
        <time>2020-10-18T07:14:13Z</time>
      </trkpt>
      <trkpt lat="43.28156" lon="5.66934">
        <ele>459.65</ele>
        <time>2020-10-18T07:14:14Z</time>
      </trkpt>
      <trkpt lat="43.28155" lon="5.66932">
        <ele>462.05</ele>
        <time>2020-10-18T07:14:18Z</time>
      </trkpt>
      <trkpt lat="43.28155" lon="5.66933">
        <ele>459.65</ele>
        <time>2020-10-18T07:14:31Z</time>
      </trkpt>
      <trkpt lat="43.28155" lon="5.66937">
        <ele>460.13</ele>
        <time>2020-10-18T07:14:41Z</time>
      </trkpt>
      <trkpt lat="43.28154" lon="5.66951">
        <ele>460.13</ele>
        <time>2020-10-18T07:14:53Z</time>
      </trkpt>
      <trkpt lat="43.28154" lon="5.66952">
        <ele>460.13</ele>
        <time>2020-10-18T07:14:54Z</time>
      </trkpt>
      <trkpt lat="43.2815" lon="5.66958">
        <ele>460.61</ele>
        <time>2020-10-18T07:15:00Z</time>
      </trkpt>
      <trkpt lat="43.28139" lon="5.66968">
        <ele>461.09</ele>
        <time>2020-10-18T07:15:13Z</time>
      </trkpt>
      <trkpt lat="43.28139" lon="5.66968">
        <ele>460.61</ele>
        <time>2020-10-18T07:15:31Z</time>
      </trkpt>
      <trkpt lat="43.28134" lon="5.66971">
        <ele>461.57</ele>
        <time>2020-10-18T07:15:37Z</time>
      </trkpt>
      <trkpt lat="43.28125" lon="5.66973">
        <ele>462.05</ele>
        <time>2020-10-18T07:15:44Z</time>
      </trkpt>
      <trkpt lat="43.28108" lon="5.66969">
        <ele>463.01</ele>
        <time>2020-10-18T07:15:57Z</time>
      </trkpt>
      <trkpt lat="43.28104" lon="5.66965">
        <ele>464.45</ele>
        <time>2020-10-18T07:16:02Z</time>
      </trkpt>
      <trkpt lat="43.28101" lon="5.66959">
        <ele>464.45</ele>
        <time>2020-10-18T07:16:07Z</time>
      </trkpt>
      <trkpt lat="43.28096" lon="5.66944">
        <ele>465.9</ele>
        <time>2020-10-18T07:16:17Z</time>
      </trkpt>
      <trkpt lat="43.28096" lon="5.66934">
        <ele>466.38</ele>
        <time>2020-10-18T07:16:23Z</time>
      </trkpt>
      <trkpt lat="43.28097" lon="5.66932">
        <ele>466.38</ele>
        <time>2020-10-18T07:16:25Z</time>
      </trkpt>
      <trkpt lat="43.28107" lon="5.66923">
        <ele>467.34</ele>
        <time>2020-10-18T07:16:36Z</time>
      </trkpt>
      <trkpt lat="43.28112" lon="5.66917">
        <ele>467.82</ele>
        <time>2020-10-18T07:16:41Z</time>
      </trkpt>
      <trkpt lat="43.2812" lon="5.66904">
        <ele>469.26</ele>
        <time>2020-10-18T07:16:53Z</time>
      </trkpt>
      <trkpt lat="43.28121" lon="5.66901">
        <ele>469.74</ele>
        <time>2020-10-18T07:16:55Z</time>
      </trkpt>
      <trkpt lat="43.28122" lon="5.66894">
        <ele>469.74</ele>
        <time>2020-10-18T07:17:00Z</time>
      </trkpt>
      <trkpt lat="43.28122" lon="5.66882">
        <ele>470.7</ele>
        <time>2020-10-18T07:17:08Z</time>
      </trkpt>
      <trkpt lat="43.28123" lon="5.66871">
        <ele>471.66</ele>
        <time>2020-10-18T07:17:15Z</time>
      </trkpt>
      <trkpt lat="43.28127" lon="5.66855">
        <ele>472.14</ele>
        <time>2020-10-18T07:17:25Z</time>
      </trkpt>
      <trkpt lat="43.28135" lon="5.66845">
        <ele>473.11</ele>
        <time>2020-10-18T07:17:38Z</time>
      </trkpt>
      <trkpt lat="43.28136" lon="5.66845">
        <ele>473.11</ele>
        <time>2020-10-18T07:17:40Z</time>
      </trkpt>
      <trkpt lat="43.28139" lon="5.66842">
        <ele>473.59</ele>
        <time>2020-10-18T07:17:43Z</time>
      </trkpt>
      <trkpt lat="43.2815" lon="5.66832">
        <ele>474.55</ele>
        <time>2020-10-18T07:17:55Z</time>
      </trkpt>
      <trkpt lat="43.28161" lon="5.66821">
        <ele>476.47</ele>
        <time>2020-10-18T07:18:07Z</time>
      </trkpt>
      <trkpt lat="43.28167" lon="5.66816">
        <ele>476.95</ele>
        <time>2020-10-18T07:18:13Z</time>
      </trkpt>
      <trkpt lat="43.28175" lon="5.668">
        <ele>479.35</ele>
        <time>2020-10-18T07:18:26Z</time>
      </trkpt>
      <trkpt lat="43.28175" lon="5.66799">
        <ele>478.87</ele>
        <time>2020-10-18T07:18:27Z</time>
      </trkpt>
      <trkpt lat="43.28174" lon="5.66793">
        <ele>480.32</ele>
        <time>2020-10-18T07:18:32Z</time>
      </trkpt>
      <trkpt lat="43.28169" lon="5.66791">
        <ele>480.8</ele>
        <time>2020-10-18T07:18:37Z</time>
      </trkpt>
      <trkpt lat="43.28155" lon="5.66789">
        <ele>481.28</ele>
        <time>2020-10-18T07:18:50Z</time>
      </trkpt>
      <trkpt lat="43.28141" lon="5.66785">
        <ele>474.07</ele>
        <time>2020-10-18T07:19:02Z</time>
      </trkpt>
      <trkpt lat="43.2814" lon="5.66785">
        <ele>478.87</ele>
        <time>2020-10-18T07:19:03Z</time>
      </trkpt>
      <trkpt lat="43.28139" lon="5.66784">
        <ele>482.24</ele>
        <time>2020-10-18T07:19:04Z</time>
      </trkpt>
      <trkpt lat="43.28138" lon="5.66783">
        <ele>482.24</ele>
        <time>2020-10-18T07:19:05Z</time>
      </trkpt>
      <trkpt lat="43.28137" lon="5.66783">
        <ele>485.6</ele>
        <time>2020-10-18T07:19:06Z</time>
      </trkpt>
      <trkpt lat="43.28135" lon="5.66783">
        <ele>479.84</ele>
        <time>2020-10-18T07:19:07Z</time>
      </trkpt>
      <trkpt lat="43.28134" lon="5.66782">
        <ele>484.16</ele>
        <time>2020-10-18T07:19:08Z</time>
      </trkpt>
      <trkpt lat="43.28132" lon="5.66781">
        <ele>475.03</ele>
        <time>2020-10-18T07:19:10Z</time>
      </trkpt>
      <trkpt lat="43.28131" lon="5.6678">
        <ele>488.01</ele>
        <time>2020-10-18T07:19:11Z</time>
      </trkpt>
      <trkpt lat="43.28129" lon="5.6678">
        <ele>483.2</ele>
        <time>2020-10-18T07:19:12Z</time>
      </trkpt>
      <trkpt lat="43.28128" lon="5.66779">
        <ele>478.87</ele>
        <time>2020-10-18T07:19:13Z</time>
      </trkpt>
      <trkpt lat="43.28127" lon="5.66778">
        <ele>485.6</ele>
        <time>2020-10-18T07:19:14Z</time>
      </trkpt>
      <trkpt lat="43.28126" lon="5.66778">
        <ele>481.28</ele>
        <time>2020-10-18T07:19:15Z</time>
      </trkpt>
      <trkpt lat="43.28122" lon="5.66776">
        <ele>482.24</ele>
        <time>2020-10-18T07:19:19Z</time>
      </trkpt>
      <trkpt lat="43.28115" lon="5.66772">
        <ele>481.76</ele>
        <time>2020-10-18T07:19:25Z</time>
      </trkpt>
      <trkpt lat="43.28113" lon="5.66769">
        <ele>482.24</ele>
        <time>2020-10-18T07:19:27Z</time>
      </trkpt>
      <trkpt lat="43.28105" lon="5.66765">
        <ele>481.76</ele>
        <time>2020-10-18T07:19:34Z</time>
      </trkpt>
      <trkpt lat="43.28087" lon="5.66752">
        <ele>480.8</ele>
        <time>2020-10-18T07:19:49Z</time>
      </trkpt>
      <trkpt lat="43.2808" lon="5.66745">
        <ele>480.32</ele>
        <time>2020-10-18T07:19:55Z</time>
      </trkpt>
      <trkpt lat="43.28076" lon="5.6674">
        <ele>479.84</ele>
        <time>2020-10-18T07:20:01Z</time>
      </trkpt>
      <trkpt lat="43.28067" lon="5.66731">
        <ele>479.35</ele>
        <time>2020-10-18T07:20:09Z</time>
      </trkpt>
      <trkpt lat="43.28054" lon="5.66718">
        <ele>478.39</ele>
        <time>2020-10-18T07:20:21Z</time>
      </trkpt>
      <trkpt lat="43.28052" lon="5.66716">
        <ele>477.91</ele>
        <time>2020-10-18T07:20:23Z</time>
      </trkpt>
      <trkpt lat="43.28037" lon="5.66699">
        <ele>476.95</ele>
        <time>2020-10-18T07:20:36Z</time>
      </trkpt>
      <trkpt lat="43.28036" lon="5.66697">
        <ele>476.47</ele>
        <time>2020-10-18T07:20:38Z</time>
      </trkpt>
      <trkpt lat="43.28032" lon="5.66693">
        <ele>475.99</ele>
        <time>2020-10-18T07:20:52Z</time>
      </trkpt>
      <trkpt lat="43.28032" lon="5.66693">
        <ele>475.99</ele>
        <time>2020-10-18T07:21:05Z</time>
      </trkpt>
      <trkpt lat="43.28032" lon="5.66693">
        <ele>475.99</ele>
        <time>2020-10-18T07:21:28Z</time>
      </trkpt>
      <trkpt lat="43.28031" lon="5.66692">
        <ele>475.99</ele>
        <time>2020-10-18T07:21:31Z</time>
      </trkpt>
      <trkpt lat="43.28028" lon="5.66691">
        <ele>476.47</ele>
        <time>2020-10-18T07:21:45Z</time>
      </trkpt>
      <trkpt lat="43.28027" lon="5.6669">
        <ele>475.99</ele>
        <time>2020-10-18T07:21:58Z</time>
      </trkpt>
      <trkpt lat="43.28027" lon="5.6669">
        <ele>475.99</ele>
        <time>2020-10-18T07:22:05Z</time>
      </trkpt>
      <trkpt lat="43.28029" lon="5.66693">
        <ele>475.99</ele>
        <time>2020-10-18T07:22:15Z</time>
      </trkpt>
      <trkpt lat="43.28029" lon="5.66693">
        <ele>475.99</ele>
        <time>2020-10-18T07:22:35Z</time>
      </trkpt>
      <trkpt lat="43.28028" lon="5.66691">
        <ele>475.99</ele>
        <time>2020-10-18T07:22:47Z</time>
      </trkpt>
      <trkpt lat="43.28027" lon="5.66689">
        <ele>475.99</ele>
        <time>2020-10-18T07:22:49Z</time>
      </trkpt>
      <trkpt lat="43.28021" lon="5.66687">
        <ele>475.51</ele>
        <time>2020-10-18T07:22:59Z</time>
      </trkpt>
      <trkpt lat="43.28021" lon="5.66687">
        <ele>475.03</ele>
        <time>2020-10-18T07:23:00Z</time>
      </trkpt>
      <trkpt lat="43.28013" lon="5.66675">
        <ele>475.99</ele>
        <time>2020-10-18T07:23:12Z</time>
      </trkpt>
      <trkpt lat="43.28" lon="5.66673">
        <ele>475.03</ele>
        <time>2020-10-18T07:23:26Z</time>
      </trkpt>
      <trkpt lat="43.28" lon="5.66672">
        <ele>475.03</ele>
        <time>2020-10-18T07:23:47Z</time>
      </trkpt>
      <trkpt lat="43.27997" lon="5.66674">
        <ele>474.55</ele>
        <time>2020-10-18T07:24:09Z</time>
      </trkpt>
      <trkpt lat="43.27996" lon="5.66674">
        <ele>474.07</ele>
        <time>2020-10-18T07:24:18Z</time>
      </trkpt>
      <trkpt lat="43.2799" lon="5.66676">
        <ele>474.55</ele>
        <time>2020-10-18T07:24:30Z</time>
      </trkpt>
      <trkpt lat="43.2799" lon="5.66675">
        <ele>474.07</ele>
        <time>2020-10-18T07:24:51Z</time>
      </trkpt>
      <trkpt lat="43.27991" lon="5.66675">
        <ele>474.07</ele>
        <time>2020-10-18T07:24:53Z</time>
      </trkpt>
      <trkpt lat="43.27991" lon="5.66666">
        <ele>474.55</ele>
        <time>2020-10-18T07:25:04Z</time>
      </trkpt>
      <trkpt lat="43.27989" lon="5.66667">
        <ele>474.55</ele>
        <time>2020-10-18T07:25:29Z</time>
      </trkpt>
      <trkpt lat="43.27991" lon="5.66671">
        <ele>474.07</ele>
        <time>2020-10-18T07:25:35Z</time>
      </trkpt>
      <trkpt lat="43.27993" lon="5.66673">
        <ele>474.55</ele>
        <time>2020-10-18T07:25:37Z</time>
      </trkpt>
      <trkpt lat="43.27995" lon="5.66673">
        <ele>474.55</ele>
        <time>2020-10-18T07:25:50Z</time>
      </trkpt>
      <trkpt lat="43.27997" lon="5.66672">
        <ele>475.03</ele>
        <time>2020-10-18T07:25:57Z</time>
      </trkpt>
      <trkpt lat="43.28001" lon="5.66671">
        <ele>475.03</ele>
        <time>2020-10-18T07:26:01Z</time>
      </trkpt>
      <trkpt lat="43.27998" lon="5.66662">
        <ele>475.99</ele>
        <time>2020-10-18T07:26:09Z</time>
      </trkpt>
      <trkpt lat="43.27987" lon="5.6666">
        <ele>475.99</ele>
        <time>2020-10-18T07:26:21Z</time>
      </trkpt>
      <trkpt lat="43.27988" lon="5.6666">
        <ele>475.99</ele>
        <time>2020-10-18T07:26:39Z</time>
      </trkpt>
      <trkpt lat="43.27988" lon="5.6666">
        <ele>475.99</ele>
        <time>2020-10-18T07:27:05Z</time>
      </trkpt>
      <trkpt lat="43.27988" lon="5.6666">
        <ele>475.99</ele>
        <time>2020-10-18T07:27:28Z</time>
      </trkpt>
      <trkpt lat="43.27988" lon="5.6666">
        <ele>476.47</ele>
        <time>2020-10-18T07:27:46Z</time>
      </trkpt>
      <trkpt lat="43.27988" lon="5.6666">
        <ele>475.99</ele>
        <time>2020-10-18T07:28:20Z</time>
      </trkpt>
      <trkpt lat="43.27988" lon="5.66659">
        <ele>475.99</ele>
        <time>2020-10-18T07:28:36Z</time>
      </trkpt>
      <trkpt lat="43.27985" lon="5.66657">
        <ele>475.99</ele>
        <time>2020-10-18T07:28:50Z</time>
      </trkpt>
      <trkpt lat="43.27983" lon="5.6666">
        <ele>475.51</ele>
        <time>2020-10-18T07:29:00Z</time>
      </trkpt>
      <trkpt lat="43.27984" lon="5.66666">
        <ele>474.07</ele>
        <time>2020-10-18T07:29:13Z</time>
      </trkpt>
      <trkpt lat="43.27983" lon="5.66659">
        <ele>475.99</ele>
        <time>2020-10-18T07:29:25Z</time>
      </trkpt>
      <trkpt lat="43.27981" lon="5.66654">
        <ele>475.99</ele>
        <time>2020-10-18T07:29:30Z</time>
      </trkpt>
      <trkpt lat="43.27979" lon="5.66653">
        <ele>475.99</ele>
        <time>2020-10-18T07:29:32Z</time>
      </trkpt>
      <trkpt lat="43.27971" lon="5.66651">
        <ele>475.99</ele>
        <time>2020-10-18T07:29:43Z</time>
      </trkpt>
      <trkpt lat="43.27968" lon="5.66649">
        <ele>475.99</ele>
        <time>2020-10-18T07:29:47Z</time>
      </trkpt>
      <trkpt lat="43.27956" lon="5.66643">
        <ele>475.51</ele>
        <time>2020-10-18T07:29:56Z</time>
      </trkpt>
      <trkpt lat="43.27945" lon="5.66637">
        <ele>475.03</ele>
        <time>2020-10-18T07:30:06Z</time>
      </trkpt>
      <trkpt lat="43.27935" lon="5.66634">
        <ele>474.55</ele>
        <time>2020-10-18T07:30:14Z</time>
      </trkpt>
      <trkpt lat="43.27924" lon="5.66628">
        <ele>473.59</ele>
        <time>2020-10-18T07:30:28Z</time>
      </trkpt>
      <trkpt lat="43.27909" lon="5.66623">
        <ele>473.59</ele>
        <time>2020-10-18T07:30:40Z</time>
      </trkpt>
      <trkpt lat="43.27906" lon="5.66623">
        <ele>473.11</ele>
        <time>2020-10-18T07:30:42Z</time>
      </trkpt>
      <trkpt lat="43.27897" lon="5.66619">
        <ele>472.63</ele>
        <time>2020-10-18T07:30:50Z</time>
      </trkpt>
      <trkpt lat="43.27885" lon="5.66617">
        <ele>471.66</ele>
        <time>2020-10-18T07:30:59Z</time>
      </trkpt>
      <trkpt lat="43.27876" lon="5.66617">
        <ele>468.78</ele>
        <time>2020-10-18T07:31:12Z</time>
      </trkpt>
      <trkpt lat="43.27876" lon="5.66617">
        <ele>473.59</ele>
        <time>2020-10-18T07:31:13Z</time>
      </trkpt>
      <trkpt lat="43.27876" lon="5.66617">
        <ele>469.74</ele>
        <time>2020-10-18T07:31:14Z</time>
      </trkpt>
      <trkpt lat="43.27876" lon="5.66617">
        <ele>464.45</ele>
        <time>2020-10-18T07:31:15Z</time>
      </trkpt>
      <trkpt lat="43.27876" lon="5.66617">
        <ele>470.22</ele>
        <time>2020-10-18T07:31:16Z</time>
      </trkpt>
      <trkpt lat="43.27876" lon="5.66617">
        <ele>480.32</ele>
        <time>2020-10-18T07:31:18Z</time>
      </trkpt>
      <trkpt lat="43.27876" lon="5.66617">
        <ele>472.63</ele>
        <time>2020-10-18T07:31:19Z</time>
      </trkpt>
      <trkpt lat="43.27876" lon="5.66617">
        <ele>469.26</ele>
        <time>2020-10-18T07:31:21Z</time>
      </trkpt>
      <trkpt lat="43.27876" lon="5.66617">
        <ele>473.11</ele>
        <time>2020-10-18T07:31:27Z</time>
      </trkpt>
      <trkpt lat="43.27876" lon="5.66617">
        <ele>471.66</ele>
        <time>2020-10-18T07:31:28Z</time>
      </trkpt>
      <trkpt lat="43.27876" lon="5.66617">
        <ele>478.87</ele>
        <time>2020-10-18T07:31:29Z</time>
      </trkpt>
      <trkpt lat="43.27876" lon="5.66617">
        <ele>471.66</ele>
        <time>2020-10-18T07:31:30Z</time>
      </trkpt>
      <trkpt lat="43.27868" lon="5.66618">
        <ele>470.7</ele>
        <time>2020-10-18T07:31:39Z</time>
      </trkpt>
      <trkpt lat="43.2785" lon="5.66614">
        <ele>471.18</ele>
        <time>2020-10-18T07:31:53Z</time>
      </trkpt>
      <trkpt lat="43.27835" lon="5.66608">
        <ele>469.26</ele>
        <time>2020-10-18T07:32:05Z</time>
      </trkpt>
      <trkpt lat="43.2783" lon="5.66607">
        <ele>469.74</ele>
        <time>2020-10-18T07:32:08Z</time>
      </trkpt>
      <trkpt lat="43.27825" lon="5.66605">
        <ele>470.22</ele>
        <time>2020-10-18T07:32:12Z</time>
      </trkpt>
      <trkpt lat="43.27817" lon="5.66605">
        <ele>471.18</ele>
        <time>2020-10-18T07:32:18Z</time>
      </trkpt>
      <trkpt lat="43.2781" lon="5.66602">
        <ele>471.66</ele>
        <time>2020-10-18T07:32:23Z</time>
      </trkpt>
      <trkpt lat="43.27805" lon="5.66601">
        <ele>472.14</ele>
        <time>2020-10-18T07:32:28Z</time>
      </trkpt>
      <trkpt lat="43.27788" lon="5.66595">
        <ele>471.66</ele>
        <time>2020-10-18T07:32:42Z</time>
      </trkpt>
      <trkpt lat="43.27772" lon="5.66588">
        <ele>470.7</ele>
        <time>2020-10-18T07:32:55Z</time>
      </trkpt>
      <trkpt lat="43.27759" lon="5.66579">
        <ele>469.26</ele>
        <time>2020-10-18T07:33:07Z</time>
      </trkpt>
      <trkpt lat="43.27759" lon="5.66579">
        <ele>469.26</ele>
        <time>2020-10-18T07:33:10Z</time>
      </trkpt>
      <trkpt lat="43.27751" lon="5.66576">
        <ele>469.26</ele>
        <time>2020-10-18T07:33:15Z</time>
      </trkpt>
      <trkpt lat="43.27731" lon="5.66567">
        <ele>460.61</ele>
        <time>2020-10-18T07:33:32Z</time>
      </trkpt>
      <trkpt lat="43.2773" lon="5.66566">
        <ele>475.99</ele>
        <time>2020-10-18T07:33:33Z</time>
      </trkpt>
      <trkpt lat="43.27729" lon="5.66566">
        <ele>464.45</ele>
        <time>2020-10-18T07:33:34Z</time>
      </trkpt>
      <trkpt lat="43.27727" lon="5.66566">
        <ele>471.66</ele>
        <time>2020-10-18T07:33:35Z</time>
      </trkpt>
      <trkpt lat="43.27725" lon="5.66565">
        <ele>457.72</ele>
        <time>2020-10-18T07:33:37Z</time>
      </trkpt>
      <trkpt lat="43.27725" lon="5.66565">
        <ele>475.99</ele>
        <time>2020-10-18T07:33:38Z</time>
      </trkpt>
      <trkpt lat="43.27723" lon="5.66564">
        <ele>466.86</ele>
        <time>2020-10-18T07:33:39Z</time>
      </trkpt>
      <trkpt lat="43.27719" lon="5.66563">
        <ele>457.72</ele>
        <time>2020-10-18T07:33:42Z</time>
      </trkpt>
      <trkpt lat="43.27718" lon="5.66563">
        <ele>464.93</ele>
        <time>2020-10-18T07:33:43Z</time>
      </trkpt>
      <trkpt lat="43.27717" lon="5.66562">
        <ele>469.26</ele>
        <time>2020-10-18T07:33:44Z</time>
      </trkpt>
      <trkpt lat="43.27716" lon="5.66562">
        <ele>474.07</ele>
        <time>2020-10-18T07:33:45Z</time>
      </trkpt>
      <trkpt lat="43.27715" lon="5.66562">
        <ele>471.66</ele>
        <time>2020-10-18T07:33:46Z</time>
      </trkpt>
      <trkpt lat="43.27713" lon="5.66562">
        <ele>463.97</ele>
        <time>2020-10-18T07:33:47Z</time>
      </trkpt>
      <trkpt lat="43.27712" lon="5.66562">
        <ele>467.34</ele>
        <time>2020-10-18T07:33:48Z</time>
      </trkpt>
      <trkpt lat="43.27705" lon="5.66563">
        <ele>463.49</ele>
        <time>2020-10-18T07:33:53Z</time>
      </trkpt>
      <trkpt lat="43.27698" lon="5.66564">
        <ele>458.69</ele>
        <time>2020-10-18T07:34:03Z</time>
      </trkpt>
      <trkpt lat="43.27698" lon="5.66564">
        <ele>466.86</ele>
        <time>2020-10-18T07:34:04Z</time>
      </trkpt>
      <trkpt lat="43.27698" lon="5.66564">
        <ele>462.05</ele>
        <time>2020-10-18T07:34:06Z</time>
      </trkpt>
      <trkpt lat="43.27698" lon="5.66564">
        <ele>457.24</ele>
        <time>2020-10-18T07:34:08Z</time>
      </trkpt>
      <trkpt lat="43.27698" lon="5.66564">
        <ele>466.86</ele>
        <time>2020-10-18T07:34:09Z</time>
      </trkpt>
      <trkpt lat="43.27698" lon="5.66564">
        <ele>469.74</ele>
        <time>2020-10-18T07:34:10Z</time>
      </trkpt>
      <trkpt lat="43.27698" lon="5.66564">
        <ele>468.78</ele>
        <time>2020-10-18T07:34:11Z</time>
      </trkpt>
      <trkpt lat="43.27698" lon="5.66564">
        <ele>461.57</ele>
        <time>2020-10-18T07:34:12Z</time>
      </trkpt>
      <trkpt lat="43.27698" lon="5.66564">
        <ele>464.45</ele>
        <time>2020-10-18T07:34:13Z</time>
      </trkpt>
      <trkpt lat="43.27698" lon="5.66564">
        <ele>459.65</ele>
        <time>2020-10-18T07:34:14Z</time>
      </trkpt>
      <trkpt lat="43.27698" lon="5.66564">
        <ele>475.03</ele>
        <time>2020-10-18T07:34:15Z</time>
      </trkpt>
      <trkpt lat="43.27697" lon="5.66564">
        <ele>463.49</ele>
        <time>2020-10-18T07:34:16Z</time>
      </trkpt>
      <trkpt lat="43.27694" lon="5.66564">
        <ele>463.49</ele>
        <time>2020-10-18T07:34:18Z</time>
      </trkpt>
      <trkpt lat="43.27676" lon="5.66565">
        <ele>462.53</ele>
        <time>2020-10-18T07:34:32Z</time>
      </trkpt>
      <trkpt lat="43.27659" lon="5.66564">
        <ele>462.05</ele>
        <time>2020-10-18T07:34:45Z</time>
      </trkpt>
      <trkpt lat="43.2764" lon="5.6657">
        <ele>463.01</ele>
        <time>2020-10-18T07:35:00Z</time>
      </trkpt>
      <trkpt lat="43.27636" lon="5.66571">
        <ele>463.01</ele>
        <time>2020-10-18T07:35:04Z</time>
      </trkpt>
      <trkpt lat="43.27631" lon="5.66572">
        <ele>463.97</ele>
        <time>2020-10-18T07:35:09Z</time>
      </trkpt>
      <trkpt lat="43.27618" lon="5.66586">
        <ele>465.42</ele>
        <time>2020-10-18T07:35:22Z</time>
      </trkpt>
      <trkpt lat="43.27617" lon="5.66589">
        <ele>465.9</ele>
        <time>2020-10-18T07:35:25Z</time>
      </trkpt>
      <trkpt lat="43.27608" lon="5.66606">
        <ele>466.86</ele>
        <time>2020-10-18T07:35:37Z</time>
      </trkpt>
      <trkpt lat="43.27608" lon="5.66612">
        <ele>466.38</ele>
        <time>2020-10-18T07:35:40Z</time>
      </trkpt>
      <trkpt lat="43.27603" lon="5.66625">
        <ele>466.86</ele>
        <time>2020-10-18T07:35:55Z</time>
      </trkpt>
      <trkpt lat="43.27602" lon="5.66629">
        <ele>466.86</ele>
        <time>2020-10-18T07:36:05Z</time>
      </trkpt>
      <trkpt lat="43.27597" lon="5.66638">
        <ele>468.3</ele>
        <time>2020-10-18T07:36:12Z</time>
      </trkpt>
      <trkpt lat="43.27595" lon="5.66645">
        <ele>468.3</ele>
        <time>2020-10-18T07:36:18Z</time>
      </trkpt>
      <trkpt lat="43.27587" lon="5.66662">
        <ele>470.22</ele>
        <time>2020-10-18T07:36:30Z</time>
      </trkpt>
      <trkpt lat="43.27584" lon="5.6667">
        <ele>469.74</ele>
        <time>2020-10-18T07:36:35Z</time>
      </trkpt>
      <trkpt lat="43.2758" lon="5.66675">
        <ele>470.22</ele>
        <time>2020-10-18T07:36:39Z</time>
      </trkpt>
      <trkpt lat="43.27572" lon="5.66686">
        <ele>470.22</ele>
        <time>2020-10-18T07:36:46Z</time>
      </trkpt>
      <trkpt lat="43.27568" lon="5.6669">
        <ele>470.7</ele>
        <time>2020-10-18T07:36:51Z</time>
      </trkpt>
      <trkpt lat="43.27554" lon="5.66708">
        <ele>469.74</ele>
        <time>2020-10-18T07:37:03Z</time>
      </trkpt>
      <trkpt lat="43.27546" lon="5.66718">
        <ele>469.74</ele>
        <time>2020-10-18T07:37:13Z</time>
      </trkpt>
      <trkpt lat="43.2753" lon="5.66732">
        <ele>470.22</ele>
        <time>2020-10-18T07:37:26Z</time>
      </trkpt>
      <trkpt lat="43.27528" lon="5.66741">
        <ele>468.78</ele>
        <time>2020-10-18T07:37:33Z</time>
      </trkpt>
      <trkpt lat="43.27528" lon="5.66741">
        <ele>468.3</ele>
        <time>2020-10-18T07:37:34Z</time>
      </trkpt>
      <trkpt lat="43.27528" lon="5.66746">
        <ele>467.82</ele>
        <time>2020-10-18T07:37:40Z</time>
      </trkpt>
      <trkpt lat="43.27524" lon="5.66761">
        <ele>465.9</ele>
        <time>2020-10-18T07:37:49Z</time>
      </trkpt>
      <trkpt lat="43.27519" lon="5.66767">
        <ele>463.97</ele>
        <time>2020-10-18T07:37:55Z</time>
      </trkpt>
      <trkpt lat="43.27504" lon="5.66779">
        <ele>463.97</ele>
        <time>2020-10-18T07:38:09Z</time>
      </trkpt>
      <trkpt lat="43.27497" lon="5.66793">
        <ele>464.93</ele>
        <time>2020-10-18T07:38:18Z</time>
      </trkpt>
      <trkpt lat="43.27496" lon="5.66797">
        <ele>464.45</ele>
        <time>2020-10-18T07:38:22Z</time>
      </trkpt>
      <trkpt lat="43.27491" lon="5.66806">
        <ele>462.05</ele>
        <time>2020-10-18T07:38:33Z</time>
      </trkpt>
      <trkpt lat="43.27487" lon="5.66815">
        <ele>460.61</ele>
        <time>2020-10-18T07:38:38Z</time>
      </trkpt>
      <trkpt lat="43.27485" lon="5.66821">
        <ele>459.65</ele>
        <time>2020-10-18T07:38:44Z</time>
      </trkpt>
      <trkpt lat="43.27484" lon="5.6683">
        <ele>458.21</ele>
        <time>2020-10-18T07:38:53Z</time>
      </trkpt>
      <trkpt lat="43.27484" lon="5.66847">
        <ele>454.84</ele>
        <time>2020-10-18T07:39:06Z</time>
      </trkpt>
      <trkpt lat="43.27482" lon="5.66851">
        <ele>454.36</ele>
        <time>2020-10-18T07:39:08Z</time>
      </trkpt>
      <trkpt lat="43.27476" lon="5.66861">
        <ele>452.44</ele>
        <time>2020-10-18T07:39:19Z</time>
      </trkpt>
      <trkpt lat="43.27475" lon="5.66862">
        <ele>452.44</ele>
        <time>2020-10-18T07:39:20Z</time>
      </trkpt>
      <trkpt lat="43.27468" lon="5.66866">
        <ele>450.03</ele>
        <time>2020-10-18T07:39:29Z</time>
      </trkpt>
      <trkpt lat="43.27459" lon="5.66863">
        <ele>449.07</ele>
        <time>2020-10-18T07:39:41Z</time>
      </trkpt>
      <trkpt lat="43.27457" lon="5.66862">
        <ele>449.07</ele>
        <time>2020-10-18T07:39:51Z</time>
      </trkpt>
      <trkpt lat="43.27451" lon="5.66853">
        <ele>448.11</ele>
        <time>2020-10-18T07:40:00Z</time>
      </trkpt>
      <trkpt lat="43.27449" lon="5.66851">
        <ele>448.11</ele>
        <time>2020-10-18T07:40:02Z</time>
      </trkpt>
      <trkpt lat="43.27436" lon="5.66833">
        <ele>447.63</ele>
        <time>2020-10-18T07:40:18Z</time>
      </trkpt>
      <trkpt lat="43.27436" lon="5.66832">
        <ele>447.15</ele>
        <time>2020-10-18T07:40:19Z</time>
      </trkpt>
      <trkpt lat="43.27434" lon="5.66827">
        <ele>447.63</ele>
        <time>2020-10-18T07:40:22Z</time>
      </trkpt>
      <trkpt lat="43.27425" lon="5.66813">
        <ele>447.15</ele>
        <time>2020-10-18T07:40:33Z</time>
      </trkpt>
      <trkpt lat="43.27421" lon="5.66806">
        <ele>446.67</ele>
        <time>2020-10-18T07:40:37Z</time>
      </trkpt>
      <trkpt lat="43.27417" lon="5.66804">
        <ele>446.67</ele>
        <time>2020-10-18T07:40:41Z</time>
      </trkpt>
      <trkpt lat="43.2741" lon="5.66795">
        <ele>446.67</ele>
        <time>2020-10-18T07:40:50Z</time>
      </trkpt>
      <trkpt lat="43.27404" lon="5.66787">
        <ele>447.15</ele>
        <time>2020-10-18T07:40:57Z</time>
      </trkpt>
      <trkpt lat="43.27398" lon="5.66781">
        <ele>447.15</ele>
        <time>2020-10-18T07:41:04Z</time>
      </trkpt>
      <trkpt lat="43.27391" lon="5.66776">
        <ele>446.67</ele>
        <time>2020-10-18T07:41:11Z</time>
      </trkpt>
      <trkpt lat="43.27384" lon="5.66771">
        <ele>446.67</ele>
        <time>2020-10-18T07:41:19Z</time>
      </trkpt>
      <trkpt lat="43.27369" lon="5.66761">
        <ele>447.15</ele>
        <time>2020-10-18T07:41:32Z</time>
      </trkpt>
      <trkpt lat="43.27368" lon="5.66761">
        <ele>446.67</ele>
        <time>2020-10-18T07:41:34Z</time>
      </trkpt>
      <trkpt lat="43.27358" lon="5.66757">
        <ele>446.67</ele>
        <time>2020-10-18T07:41:43Z</time>
      </trkpt>
      <trkpt lat="43.27352" lon="5.66755">
        <ele>447.15</ele>
        <time>2020-10-18T07:41:49Z</time>
      </trkpt>
      <trkpt lat="43.27346" lon="5.66753">
        <ele>446.67</ele>
        <time>2020-10-18T07:41:53Z</time>
      </trkpt>
      <trkpt lat="43.27331" lon="5.66747">
        <ele>446.19</ele>
        <time>2020-10-18T07:42:07Z</time>
      </trkpt>
      <trkpt lat="43.27318" lon="5.66744">
        <ele>446.19</ele>
        <time>2020-10-18T07:42:18Z</time>
      </trkpt>
      <trkpt lat="43.27311" lon="5.66742">
        <ele>446.19</ele>
        <time>2020-10-18T07:42:23Z</time>
      </trkpt>
      <trkpt lat="43.27294" lon="5.66739">
        <ele>445.71</ele>
        <time>2020-10-18T07:42:36Z</time>
      </trkpt>
      <trkpt lat="43.27279" lon="5.66738">
        <ele>445.71</ele>
        <time>2020-10-18T07:42:48Z</time>
      </trkpt>
      <trkpt lat="43.27265" lon="5.66734">
        <ele>445.23</ele>
        <time>2020-10-18T07:43:00Z</time>
      </trkpt>
      <trkpt lat="43.27254" lon="5.66729">
        <ele>445.23</ele>
        <time>2020-10-18T07:43:10Z</time>
      </trkpt>
      <trkpt lat="43.27252" lon="5.66727">
        <ele>445.23</ele>
        <time>2020-10-18T07:43:13Z</time>
      </trkpt>
      <trkpt lat="43.27248" lon="5.66724">
        <ele>445.71</ele>
        <time>2020-10-18T07:43:17Z</time>
      </trkpt>
      <trkpt lat="43.27241" lon="5.66718">
        <ele>445.23</ele>
        <time>2020-10-18T07:43:24Z</time>
      </trkpt>
      <trkpt lat="43.27232" lon="5.66711">
        <ele>445.71</ele>
        <time>2020-10-18T07:43:34Z</time>
      </trkpt>
      <trkpt lat="43.27227" lon="5.66708">
        <ele>445.23</ele>
        <time>2020-10-18T07:43:39Z</time>
      </trkpt>
      <trkpt lat="43.2722" lon="5.66706">
        <ele>445.71</ele>
        <time>2020-10-18T07:43:54Z</time>
      </trkpt>
      <trkpt lat="43.27218" lon="5.66707">
        <ele>445.71</ele>
        <time>2020-10-18T07:44:06Z</time>
      </trkpt>
      <trkpt lat="43.27211" lon="5.66704">
        <ele>445.23</ele>
        <time>2020-10-18T07:44:14Z</time>
      </trkpt>
      <trkpt lat="43.27193" lon="5.66698">
        <ele>444.27</ele>
        <time>2020-10-18T07:44:30Z</time>
      </trkpt>
      <trkpt lat="43.27181" lon="5.66693">
        <ele>442.82</ele>
        <time>2020-10-18T07:44:41Z</time>
      </trkpt>
      <trkpt lat="43.27164" lon="5.66697">
        <ele>441.38</ele>
        <time>2020-10-18T07:44:56Z</time>
      </trkpt>
      <trkpt lat="43.27159" lon="5.66698">
        <ele>440.42</ele>
        <time>2020-10-18T07:45:07Z</time>
      </trkpt>
      <trkpt lat="43.27159" lon="5.66698">
        <ele>440.42</ele>
        <time>2020-10-18T07:45:30Z</time>
      </trkpt>
      <trkpt lat="43.27159" lon="5.66697">
        <ele>440.42</ele>
        <time>2020-10-18T07:46:01Z</time>
      </trkpt>
      <trkpt lat="43.27158" lon="5.66697">
        <ele>440.42</ele>
        <time>2020-10-18T07:46:05Z</time>
      </trkpt>
      <trkpt lat="43.27148" lon="5.667">
        <ele>439.46</ele>
        <time>2020-10-18T07:46:14Z</time>
      </trkpt>
      <trkpt lat="43.27143" lon="5.66702">
        <ele>438.98</ele>
        <time>2020-10-18T07:46:19Z</time>
      </trkpt>
      <trkpt lat="43.2713" lon="5.66702">
        <ele>437.06</ele>
        <time>2020-10-18T07:46:32Z</time>
      </trkpt>
      <trkpt lat="43.27127" lon="5.66704">
        <ele>436.58</ele>
        <time>2020-10-18T07:46:35Z</time>
      </trkpt>
      <trkpt lat="43.27124" lon="5.66707">
        <ele>436.1</ele>
        <time>2020-10-18T07:46:39Z</time>
      </trkpt>
      <trkpt lat="43.2711" lon="5.66715">
        <ele>434.17</ele>
        <time>2020-10-18T07:46:53Z</time>
      </trkpt>
      <trkpt lat="43.27102" lon="5.66719">
        <ele>432.73</ele>
        <time>2020-10-18T07:47:01Z</time>
      </trkpt>
      <trkpt lat="43.27098" lon="5.66721">
        <ele>432.25</ele>
        <time>2020-10-18T07:47:05Z</time>
      </trkpt>
      <trkpt lat="43.27087" lon="5.66733">
        <ele>429.85</ele>
        <time>2020-10-18T07:47:18Z</time>
      </trkpt>
      <trkpt lat="43.27081" lon="5.66734">
        <ele>427.92</ele>
        <time>2020-10-18T07:47:26Z</time>
      </trkpt>
      <trkpt lat="43.27079" lon="5.66727">
        <ele>426.48</ele>
        <time>2020-10-18T07:47:33Z</time>
      </trkpt>
      <trkpt lat="43.27077" lon="5.66717">
        <ele>424.56</ele>
        <time>2020-10-18T07:47:45Z</time>
      </trkpt>
      <trkpt lat="43.27077" lon="5.66717">
        <ele>424.56</ele>
        <time>2020-10-18T07:47:55Z</time>
      </trkpt>
      <trkpt lat="43.27077" lon="5.66713">
        <ele>424.08</ele>
        <time>2020-10-18T07:47:58Z</time>
      </trkpt>
      <trkpt lat="43.27077" lon="5.66701">
        <ele>422.64</ele>
        <time>2020-10-18T07:48:07Z</time>
      </trkpt>
      <trkpt lat="43.27076" lon="5.66698">
        <ele>422.16</ele>
        <time>2020-10-18T07:48:09Z</time>
      </trkpt>
      <trkpt lat="43.27075" lon="5.66691">
        <ele>420.71</ele>
        <time>2020-10-18T07:48:14Z</time>
      </trkpt>
      <trkpt lat="43.27076" lon="5.66681">
        <ele>419.75</ele>
        <time>2020-10-18T07:48:21Z</time>
      </trkpt>
      <trkpt lat="43.27077" lon="5.66676">
        <ele>418.79</ele>
        <time>2020-10-18T07:48:25Z</time>
      </trkpt>
      <trkpt lat="43.27082" lon="5.66662">
        <ele>416.39</ele>
        <time>2020-10-18T07:48:36Z</time>
      </trkpt>
      <trkpt lat="43.27083" lon="5.6666">
        <ele>415.91</ele>
        <time>2020-10-18T07:48:38Z</time>
      </trkpt>
      <trkpt lat="43.27086" lon="5.66649">
        <ele>413.98</ele>
        <time>2020-10-18T07:48:47Z</time>
      </trkpt>
      <trkpt lat="43.27087" lon="5.66646">
        <ele>413.5</ele>
        <time>2020-10-18T07:48:49Z</time>
      </trkpt>
      <trkpt lat="43.27093" lon="5.66636">
        <ele>412.06</ele>
        <time>2020-10-18T07:48:57Z</time>
      </trkpt>
      <trkpt lat="43.27098" lon="5.66628">
        <ele>409.18</ele>
        <time>2020-10-18T07:49:09Z</time>
      </trkpt>
      <trkpt lat="43.27098" lon="5.66628">
        <ele>412.54</ele>
        <time>2020-10-18T07:49:10Z</time>
      </trkpt>
      <trkpt lat="43.27104" lon="5.66621">
        <ele>409.18</ele>
        <time>2020-10-18T07:49:19Z</time>
      </trkpt>
      <trkpt lat="43.27105" lon="5.66618">
        <ele>409.18</ele>
        <time>2020-10-18T07:49:22Z</time>
      </trkpt>
      <trkpt lat="43.27106" lon="5.66615">
        <ele>409.18</ele>
        <time>2020-10-18T07:49:24Z</time>
      </trkpt>
      <trkpt lat="43.27114" lon="5.66609">
        <ele>407.26</ele>
        <time>2020-10-18T07:49:33Z</time>
      </trkpt>
      <trkpt lat="43.27124" lon="5.66604">
        <ele>405.81</ele>
        <time>2020-10-18T07:49:44Z</time>
      </trkpt>
      <trkpt lat="43.27128" lon="5.66602">
        <ele>404.85</ele>
        <time>2020-10-18T07:49:47Z</time>
      </trkpt>
      <trkpt lat="43.27137" lon="5.66598">
        <ele>402.93</ele>
        <time>2020-10-18T07:49:58Z</time>
      </trkpt>
      <trkpt lat="43.27148" lon="5.6659">
        <ele>400.53</ele>
        <time>2020-10-18T07:50:10Z</time>
      </trkpt>
      <trkpt lat="43.27148" lon="5.6659">
        <ele>401.49</ele>
        <time>2020-10-18T07:50:25Z</time>
      </trkpt>
      <trkpt lat="43.27148" lon="5.6659">
        <ele>401.01</ele>
        <time>2020-10-18T07:50:42Z</time>
      </trkpt>
      <trkpt lat="43.27148" lon="5.6659">
        <ele>401.01</ele>
        <time>2020-10-18T07:51:02Z</time>
      </trkpt>
      <trkpt lat="43.27155" lon="5.66584">
        <ele>398.6</ele>
        <time>2020-10-18T07:51:20Z</time>
      </trkpt>
      <trkpt lat="43.27155" lon="5.66569">
        <ele>397.16</ele>
        <time>2020-10-18T07:51:30Z</time>
      </trkpt>
      <trkpt lat="43.27153" lon="5.66567">
        <ele>396.68</ele>
        <time>2020-10-18T07:51:32Z</time>
      </trkpt>
      <trkpt lat="43.27147" lon="5.66563">
        <ele>394.76</ele>
        <time>2020-10-18T07:51:38Z</time>
      </trkpt>
      <trkpt lat="43.27145" lon="5.66561">
        <ele>394.28</ele>
        <time>2020-10-18T07:51:41Z</time>
      </trkpt>
      <trkpt lat="43.27131" lon="5.66557">
        <ele>391.39</ele>
        <time>2020-10-18T07:51:55Z</time>
      </trkpt>
      <trkpt lat="43.27129" lon="5.66557">
        <ele>390.91</ele>
        <time>2020-10-18T07:51:58Z</time>
      </trkpt>
      <trkpt lat="43.27115" lon="5.66554">
        <ele>388.51</ele>
        <time>2020-10-18T07:52:11Z</time>
      </trkpt>
      <trkpt lat="43.27113" lon="5.66553">
        <ele>388.03</ele>
        <time>2020-10-18T07:52:14Z</time>
      </trkpt>
      <trkpt lat="43.27107" lon="5.66551">
        <ele>386.59</ele>
        <time>2020-10-18T07:52:21Z</time>
      </trkpt>
      <trkpt lat="43.27097" lon="5.66549">
        <ele>384.66</ele>
        <time>2020-10-18T07:52:32Z</time>
      </trkpt>
      <trkpt lat="43.27097" lon="5.66549">
        <ele>384.18</ele>
        <time>2020-10-18T07:52:33Z</time>
      </trkpt>
      <trkpt lat="43.27092" lon="5.66549">
        <ele>383.22</ele>
        <time>2020-10-18T07:52:38Z</time>
      </trkpt>
      <trkpt lat="43.27084" lon="5.66548">
        <ele>380.82</ele>
        <time>2020-10-18T07:52:52Z</time>
      </trkpt>
      <trkpt lat="43.27073" lon="5.66548">
        <ele>377.94</ele>
        <time>2020-10-18T07:53:05Z</time>
      </trkpt>
      <trkpt lat="43.27065" lon="5.66547">
        <ele>375.53</ele>
        <time>2020-10-18T07:53:16Z</time>
      </trkpt>
      <trkpt lat="43.27059" lon="5.66545">
        <ele>373.13</ele>
        <time>2020-10-18T07:53:28Z</time>
      </trkpt>
      <trkpt lat="43.27058" lon="5.66544">
        <ele>374.09</ele>
        <time>2020-10-18T07:53:41Z</time>
      </trkpt>
      <trkpt lat="43.27058" lon="5.66544">
        <ele>373.13</ele>
        <time>2020-10-18T07:54:06Z</time>
      </trkpt>
      <trkpt lat="43.27058" lon="5.66543">
        <ele>371.69</ele>
        <time>2020-10-18T07:54:27Z</time>
      </trkpt>
      <trkpt lat="43.27052" lon="5.66541">
        <ele>369.76</ele>
        <time>2020-10-18T07:54:37Z</time>
      </trkpt>
      <trkpt lat="43.27047" lon="5.66539">
        <ele>368.32</ele>
        <time>2020-10-18T07:54:48Z</time>
      </trkpt>
      <trkpt lat="43.27041" lon="5.66539">
        <ele>367.36</ele>
        <time>2020-10-18T07:55:09Z</time>
      </trkpt>
      <trkpt lat="43.27035" lon="5.66536">
        <ele>365.92</ele>
        <time>2020-10-18T07:55:23Z</time>
      </trkpt>
      <trkpt lat="43.27034" lon="5.66535">
        <ele>365.92</ele>
        <time>2020-10-18T07:55:24Z</time>
      </trkpt>
      <trkpt lat="43.27026" lon="5.66532">
        <ele>364</ele>
        <time>2020-10-18T07:55:31Z</time>
      </trkpt>
      <trkpt lat="43.27021" lon="5.66528">
        <ele>362.07</ele>
        <time>2020-10-18T07:55:44Z</time>
      </trkpt>
      <trkpt lat="43.27012" lon="5.66523">
        <ele>359.67</ele>
        <time>2020-10-18T07:55:58Z</time>
      </trkpt>
      <trkpt lat="43.27003" lon="5.66518">
        <ele>356.79</ele>
        <time>2020-10-18T07:56:09Z</time>
      </trkpt>
      <trkpt lat="43.26997" lon="5.66518">
        <ele>355.34</ele>
        <time>2020-10-18T07:56:15Z</time>
      </trkpt>
      <trkpt lat="43.2699" lon="5.66516">
        <ele>353.9</ele>
        <time>2020-10-18T07:56:28Z</time>
      </trkpt>
      <trkpt lat="43.26985" lon="5.66513">
        <ele>352.94</ele>
        <time>2020-10-18T07:56:46Z</time>
      </trkpt>
      <trkpt lat="43.26985" lon="5.66513">
        <ele>352.46</ele>
        <time>2020-10-18T07:56:49Z</time>
      </trkpt>
      <trkpt lat="43.26983" lon="5.66512">
        <ele>352.46</ele>
        <time>2020-10-18T07:56:52Z</time>
      </trkpt>
      <trkpt lat="43.26976" lon="5.66508">
        <ele>350.54</ele>
        <time>2020-10-18T07:57:00Z</time>
      </trkpt>
      <trkpt lat="43.26967" lon="5.66505">
        <ele>348.62</ele>
        <time>2020-10-18T07:57:13Z</time>
      </trkpt>
      <trkpt lat="43.26965" lon="5.66505">
        <ele>348.62</ele>
        <time>2020-10-18T07:57:36Z</time>
      </trkpt>
      <trkpt lat="43.26957" lon="5.66502">
        <ele>347.17</ele>
        <time>2020-10-18T07:57:45Z</time>
      </trkpt>
      <trkpt lat="43.26956" lon="5.66502">
        <ele>346.69</ele>
        <time>2020-10-18T07:57:49Z</time>
      </trkpt>
      <trkpt lat="43.26953" lon="5.66501">
        <ele>346.69</ele>
        <time>2020-10-18T07:57:52Z</time>
      </trkpt>
      <trkpt lat="43.26945" lon="5.66498">
        <ele>346.21</ele>
        <time>2020-10-18T07:57:58Z</time>
      </trkpt>
      <trkpt lat="43.26939" lon="5.66496">
        <ele>346.21</ele>
        <time>2020-10-18T07:58:02Z</time>
      </trkpt>
      <trkpt lat="43.26927" lon="5.66495">
        <ele>344.77</ele>
        <time>2020-10-18T07:58:12Z</time>
      </trkpt>
      <trkpt lat="43.26912" lon="5.66502">
        <ele>342.85</ele>
        <time>2020-10-18T07:58:24Z</time>
      </trkpt>
      <trkpt lat="43.26907" lon="5.66509">
        <ele>341.89</ele>
        <time>2020-10-18T07:58:31Z</time>
      </trkpt>
      <trkpt lat="43.26902" lon="5.66516">
        <ele>340.44</ele>
        <time>2020-10-18T07:58:39Z</time>
      </trkpt>
      <trkpt lat="43.269" lon="5.66522">
        <ele>339</ele>
        <time>2020-10-18T07:58:55Z</time>
      </trkpt>
      <trkpt lat="43.26899" lon="5.66523">
        <ele>339</ele>
        <time>2020-10-18T07:59:06Z</time>
      </trkpt>
      <trkpt lat="43.26897" lon="5.66526">
        <ele>338.52</ele>
        <time>2020-10-18T07:59:25Z</time>
      </trkpt>
      <trkpt lat="43.26896" lon="5.66528">
        <ele>338.52</ele>
        <time>2020-10-18T07:59:26Z</time>
      </trkpt>
      <trkpt lat="43.26893" lon="5.66533">
        <ele>338.04</ele>
        <time>2020-10-18T07:59:32Z</time>
      </trkpt>
      <trkpt lat="43.26889" lon="5.66549">
        <ele>335.64</ele>
        <time>2020-10-18T07:59:43Z</time>
      </trkpt>
      <trkpt lat="43.26884" lon="5.66563">
        <ele>333.71</ele>
        <time>2020-10-18T07:59:55Z</time>
      </trkpt>
      <trkpt lat="43.26883" lon="5.66566">
        <ele>333.23</ele>
        <time>2020-10-18T07:59:57Z</time>
      </trkpt>
      <trkpt lat="43.26879" lon="5.66575">
        <ele>331.79</ele>
        <time>2020-10-18T08:00:05Z</time>
      </trkpt>
      <trkpt lat="43.26873" lon="5.66593">
        <ele>329.87</ele>
        <time>2020-10-18T08:00:19Z</time>
      </trkpt>
      <trkpt lat="43.26869" lon="5.66603">
        <ele>328.43</ele>
        <time>2020-10-18T08:00:32Z</time>
      </trkpt>
      <trkpt lat="43.26868" lon="5.66604">
        <ele>327.95</ele>
        <time>2020-10-18T08:00:33Z</time>
      </trkpt>
      <trkpt lat="43.26862" lon="5.66622">
        <ele>325.06</ele>
        <time>2020-10-18T08:00:48Z</time>
      </trkpt>
      <trkpt lat="43.26859" lon="5.66635">
        <ele>322.66</ele>
        <time>2020-10-18T08:00:59Z</time>
      </trkpt>
      <trkpt lat="43.26858" lon="5.66645">
        <ele>321.22</ele>
        <time>2020-10-18T08:01:10Z</time>
      </trkpt>
      <trkpt lat="43.26853" lon="5.66657">
        <ele>319.3</ele>
        <time>2020-10-18T08:01:21Z</time>
      </trkpt>
      <trkpt lat="43.26852" lon="5.66663">
        <ele>317.37</ele>
        <time>2020-10-18T08:01:33Z</time>
      </trkpt>
      <trkpt lat="43.2685" lon="5.66682">
        <ele>315.45</ele>
        <time>2020-10-18T08:01:45Z</time>
      </trkpt>
      <trkpt lat="43.26849" lon="5.66696">
        <ele>313.53</ele>
        <time>2020-10-18T08:01:56Z</time>
      </trkpt>
      <trkpt lat="43.26847" lon="5.66701">
        <ele>312.57</ele>
        <time>2020-10-18T08:02:00Z</time>
      </trkpt>
      <trkpt lat="43.26846" lon="5.66704">
        <ele>312.57</ele>
        <time>2020-10-18T08:02:02Z</time>
      </trkpt>
      <trkpt lat="43.26845" lon="5.6672">
        <ele>310.16</ele>
        <time>2020-10-18T08:02:12Z</time>
      </trkpt>
      <trkpt lat="43.26844" lon="5.66723">
        <ele>309.68</ele>
        <time>2020-10-18T08:02:14Z</time>
      </trkpt>
      <trkpt lat="43.26843" lon="5.6674">
        <ele>307.28</ele>
        <time>2020-10-18T08:02:26Z</time>
      </trkpt>
      <trkpt lat="43.26842" lon="5.66752">
        <ele>305.36</ele>
        <time>2020-10-18T08:02:35Z</time>
      </trkpt>
      <trkpt lat="43.26844" lon="5.66756">
        <ele>304.88</ele>
        <time>2020-10-18T08:02:49Z</time>
      </trkpt>
      <trkpt lat="43.26842" lon="5.66764">
        <ele>303.91</ele>
        <time>2020-10-18T08:03:04Z</time>
      </trkpt>
      <trkpt lat="43.2684" lon="5.66776">
        <ele>302.47</ele>
        <time>2020-10-18T08:03:12Z</time>
      </trkpt>
      <trkpt lat="43.26841" lon="5.66779">
        <ele>301.99</ele>
        <time>2020-10-18T08:03:14Z</time>
      </trkpt>
      <trkpt lat="43.26841" lon="5.6679">
        <ele>300.55</ele>
        <time>2020-10-18T08:03:22Z</time>
      </trkpt>
      <trkpt lat="43.2684" lon="5.66805">
        <ele>298.15</ele>
        <time>2020-10-18T08:03:35Z</time>
      </trkpt>
      <trkpt lat="43.2684" lon="5.6681">
        <ele>297.18</ele>
        <time>2020-10-18T08:03:39Z</time>
      </trkpt>
      <trkpt lat="43.2684" lon="5.66822">
        <ele>296.22</ele>
        <time>2020-10-18T08:03:51Z</time>
      </trkpt>
      <trkpt lat="43.2684" lon="5.66832">
        <ele>294.3</ele>
        <time>2020-10-18T08:04:03Z</time>
      </trkpt>
      <trkpt lat="43.26841" lon="5.6684">
        <ele>292.86</ele>
        <time>2020-10-18T08:04:13Z</time>
      </trkpt>
      <trkpt lat="43.26842" lon="5.66845">
        <ele>292.86</ele>
        <time>2020-10-18T08:04:17Z</time>
      </trkpt>
      <trkpt lat="43.26842" lon="5.66858">
        <ele>290.94</ele>
        <time>2020-10-18T08:04:26Z</time>
      </trkpt>
      <trkpt lat="43.26843" lon="5.66862">
        <ele>290.46</ele>
        <time>2020-10-18T08:04:28Z</time>
      </trkpt>
      <trkpt lat="43.26842" lon="5.66868">
        <ele>289.97</ele>
        <time>2020-10-18T08:04:31Z</time>
      </trkpt>
      <trkpt lat="43.26842" lon="5.66879">
        <ele>288.53</ele>
        <time>2020-10-18T08:04:39Z</time>
      </trkpt>
      <trkpt lat="43.26846" lon="5.669">
        <ele>285.65</ele>
        <time>2020-10-18T08:04:52Z</time>
      </trkpt>
      <trkpt lat="43.26846" lon="5.66914">
        <ele>283.25</ele>
        <time>2020-10-18T08:05:05Z</time>
      </trkpt>
      <trkpt lat="43.26846" lon="5.66931">
        <ele>281.32</ele>
        <time>2020-10-18T08:05:17Z</time>
      </trkpt>
      <trkpt lat="43.26846" lon="5.66937">
        <ele>280.36</ele>
        <time>2020-10-18T08:05:30Z</time>
      </trkpt>
      <trkpt lat="43.26844" lon="5.66958">
        <ele>277.96</ele>
        <time>2020-10-18T08:05:46Z</time>
      </trkpt>
      <trkpt lat="43.26845" lon="5.66965">
        <ele>277.48</ele>
        <time>2020-10-18T08:05:50Z</time>
      </trkpt>
      <trkpt lat="43.26846" lon="5.66982">
        <ele>275.07</ele>
        <time>2020-10-18T08:06:01Z</time>
      </trkpt>
      <trkpt lat="43.26844" lon="5.66987">
        <ele>274.59</ele>
        <time>2020-10-18T08:06:04Z</time>
      </trkpt>
      <trkpt lat="43.26839" lon="5.66989">
        <ele>273.63</ele>
        <time>2020-10-18T08:06:12Z</time>
      </trkpt>
      <trkpt lat="43.26839" lon="5.66982">
        <ele>273.15</ele>
        <time>2020-10-18T08:06:19Z</time>
      </trkpt>
      <trkpt lat="43.26835" lon="5.66966">
        <ele>272.67</ele>
        <time>2020-10-18T08:06:29Z</time>
      </trkpt>
      <trkpt lat="43.26835" lon="5.66963">
        <ele>272.19</ele>
        <time>2020-10-18T08:06:31Z</time>
      </trkpt>
      <trkpt lat="43.26827" lon="5.66946">
        <ele>271.23</ele>
        <time>2020-10-18T08:06:43Z</time>
      </trkpt>
      <trkpt lat="43.26825" lon="5.66942">
        <ele>271.23</ele>
        <time>2020-10-18T08:06:46Z</time>
      </trkpt>
      <trkpt lat="43.26815" lon="5.66926">
        <ele>269.79</ele>
        <time>2020-10-18T08:06:58Z</time>
      </trkpt>
      <trkpt lat="43.26813" lon="5.66919">
        <ele>269.31</ele>
        <time>2020-10-18T08:07:02Z</time>
      </trkpt>
      <trkpt lat="43.26805" lon="5.66902">
        <ele>268.83</ele>
        <time>2020-10-18T08:07:13Z</time>
      </trkpt>
      <trkpt lat="43.26802" lon="5.66892">
        <ele>267.86</ele>
        <time>2020-10-18T08:07:20Z</time>
      </trkpt>
      <trkpt lat="43.26796" lon="5.66891">
        <ele>267.86</ele>
        <time>2020-10-18T08:07:25Z</time>
      </trkpt>
      <trkpt lat="43.26793" lon="5.66897">
        <ele>267.38</ele>
        <time>2020-10-18T08:07:29Z</time>
      </trkpt>
      <trkpt lat="43.26793" lon="5.66913">
        <ele>266.42</ele>
        <time>2020-10-18T08:07:38Z</time>
      </trkpt>
      <trkpt lat="43.26803" lon="5.66942">
        <ele>264.98</ele>
        <time>2020-10-18T08:07:53Z</time>
      </trkpt>
      <trkpt lat="43.26808" lon="5.66964">
        <ele>263.06</ele>
        <time>2020-10-18T08:08:07Z</time>
      </trkpt>
      <trkpt lat="43.26809" lon="5.66966">
        <ele>263.06</ele>
        <time>2020-10-18T08:08:09Z</time>
      </trkpt>
      <trkpt lat="43.26808" lon="5.66979">
        <ele>261.62</ele>
        <time>2020-10-18T08:08:18Z</time>
      </trkpt>
      <trkpt lat="43.26802" lon="5.66988">
        <ele>261.14</ele>
        <time>2020-10-18T08:08:24Z</time>
      </trkpt>
      <trkpt lat="43.26794" lon="5.66998">
        <ele>259.69</ele>
        <time>2020-10-18T08:08:35Z</time>
      </trkpt>
      <trkpt lat="43.26794" lon="5.66997">
        <ele>259.21</ele>
        <time>2020-10-18T08:08:46Z</time>
      </trkpt>
      <trkpt lat="43.26793" lon="5.67">
        <ele>259.69</ele>
        <time>2020-10-18T08:08:48Z</time>
      </trkpt>
      <trkpt lat="43.26784" lon="5.67022">
        <ele>257.29</ele>
        <time>2020-10-18T08:09:03Z</time>
      </trkpt>
      <trkpt lat="43.26782" lon="5.67039">
        <ele>255.85</ele>
        <time>2020-10-18T08:09:11Z</time>
      </trkpt>
      <trkpt lat="43.2678" lon="5.67057">
        <ele>254.41</ele>
        <time>2020-10-18T08:09:23Z</time>
      </trkpt>
      <trkpt lat="43.26779" lon="5.67061">
        <ele>253.93</ele>
        <time>2020-10-18T08:09:25Z</time>
      </trkpt>
      <trkpt lat="43.26777" lon="5.67088">
        <ele>252</ele>
        <time>2020-10-18T08:09:37Z</time>
      </trkpt>
      <trkpt lat="43.2678" lon="5.67112">
        <ele>250.08</ele>
        <time>2020-10-18T08:09:47Z</time>
      </trkpt>
      <trkpt lat="43.26781" lon="5.67119">
        <ele>249.6</ele>
        <time>2020-10-18T08:09:50Z</time>
      </trkpt>
      <trkpt lat="43.26781" lon="5.6713">
        <ele>248.64</ele>
        <time>2020-10-18T08:09:55Z</time>
      </trkpt>
      <trkpt lat="43.26782" lon="5.67143">
        <ele>246.23</ele>
        <time>2020-10-18T08:10:09Z</time>
      </trkpt>
      <trkpt lat="43.26782" lon="5.67144">
        <ele>245.75</ele>
        <time>2020-10-18T08:10:27Z</time>
      </trkpt>
      <trkpt lat="43.26782" lon="5.67144">
        <ele>246.23</ele>
        <time>2020-10-18T08:10:33Z</time>
      </trkpt>
      <trkpt lat="43.26782" lon="5.67148">
        <ele>246.23</ele>
        <time>2020-10-18T08:10:35Z</time>
      </trkpt>
      <trkpt lat="43.26781" lon="5.67163">
        <ele>244.79</ele>
        <time>2020-10-18T08:10:43Z</time>
      </trkpt>
      <trkpt lat="43.26782" lon="5.67179">
        <ele>243.83</ele>
        <time>2020-10-18T08:10:50Z</time>
      </trkpt>
      <trkpt lat="43.26778" lon="5.67182">
        <ele>243.35</ele>
        <time>2020-10-18T08:10:56Z</time>
      </trkpt>
      <trkpt lat="43.26763" lon="5.67174">
        <ele>240.47</ele>
        <time>2020-10-18T08:11:07Z</time>
      </trkpt>
      <trkpt lat="43.26753" lon="5.67166">
        <ele>238.54</ele>
        <time>2020-10-18T08:11:21Z</time>
      </trkpt>
      <trkpt lat="43.26751" lon="5.67165">
        <ele>238.54</ele>
        <time>2020-10-18T08:11:23Z</time>
      </trkpt>
      <trkpt lat="43.2675" lon="5.67162">
        <ele>238.54</ele>
        <time>2020-10-18T08:11:25Z</time>
      </trkpt>
      <trkpt lat="43.26748" lon="5.6716">
        <ele>238.06</ele>
        <time>2020-10-18T08:11:27Z</time>
      </trkpt>
      <trkpt lat="43.26734" lon="5.67153">
        <ele>236.62</ele>
        <time>2020-10-18T08:11:40Z</time>
      </trkpt>
      <trkpt lat="43.26726" lon="5.6715">
        <ele>235.66</ele>
        <time>2020-10-18T08:11:47Z</time>
      </trkpt>
      <trkpt lat="43.26707" lon="5.67143">
        <ele>234.22</ele>
        <time>2020-10-18T08:12:00Z</time>
      </trkpt>
      <trkpt lat="43.26704" lon="5.67139">
        <ele>234.22</ele>
        <time>2020-10-18T08:12:02Z</time>
      </trkpt>
      <trkpt lat="43.26699" lon="5.67135">
        <ele>233.26</ele>
        <time>2020-10-18T08:12:11Z</time>
      </trkpt>
      <trkpt lat="43.26689" lon="5.67125">
        <ele>231.33</ele>
        <time>2020-10-18T08:12:21Z</time>
      </trkpt>
      <trkpt lat="43.26678" lon="5.67108">
        <ele>230.37</ele>
        <time>2020-10-18T08:12:32Z</time>
      </trkpt>
      <trkpt lat="43.26676" lon="5.67105">
        <ele>229.89</ele>
        <time>2020-10-18T08:12:37Z</time>
      </trkpt>
      <trkpt lat="43.26667" lon="5.67106">
        <ele>227.49</ele>
        <time>2020-10-18T08:12:47Z</time>
      </trkpt>
      <trkpt lat="43.26662" lon="5.67106">
        <ele>226.05</ele>
        <time>2020-10-18T08:12:56Z</time>
      </trkpt>
      <trkpt lat="43.26651" lon="5.67106">
        <ele>223.16</ele>
        <time>2020-10-18T08:13:08Z</time>
      </trkpt>
      <trkpt lat="43.26642" lon="5.67103">
        <ele>221.24</ele>
        <time>2020-10-18T08:13:17Z</time>
      </trkpt>
      <trkpt lat="43.26634" lon="5.67103">
        <ele>220.28</ele>
        <time>2020-10-18T08:13:24Z</time>
      </trkpt>
      <trkpt lat="43.26632" lon="5.6709">
        <ele>219.32</ele>
        <time>2020-10-18T08:13:34Z</time>
      </trkpt>
      <trkpt lat="43.26625" lon="5.67083">
        <ele>219.32</ele>
        <time>2020-10-18T08:13:50Z</time>
      </trkpt>
      <trkpt lat="43.26621" lon="5.67076">
        <ele>218.84</ele>
        <time>2020-10-18T08:13:54Z</time>
      </trkpt>
      <trkpt lat="43.26612" lon="5.67057">
        <ele>218.36</ele>
        <time>2020-10-18T08:14:06Z</time>
      </trkpt>
      <trkpt lat="43.26609" lon="5.67052">
        <ele>217.88</ele>
        <time>2020-10-18T08:14:10Z</time>
      </trkpt>
      <trkpt lat="43.26608" lon="5.67046">
        <ele>217.4</ele>
        <time>2020-10-18T08:14:13Z</time>
      </trkpt>
      <trkpt lat="43.26607" lon="5.67038">
        <ele>213.55</ele>
        <time>2020-10-18T08:14:17Z</time>
      </trkpt>
      <trkpt lat="43.26607" lon="5.67036">
        <ele>219.8</ele>
        <time>2020-10-18T08:14:18Z</time>
      </trkpt>
      <trkpt lat="43.26607" lon="5.67022">
        <ele>216.91</ele>
        <time>2020-10-18T08:14:27Z</time>
      </trkpt>
      <trkpt lat="43.26608" lon="5.67004">
        <ele>216.43</ele>
        <time>2020-10-18T08:14:39Z</time>
      </trkpt>
    </trkseg>
  </trk>
</gpx>